﻿<?xml version="1.0" encoding="UTF-8" standalone="no" ?>
<gpx xmlns="http://www.topografix.com/GPX/1/1" creator="CompeGPS" version="1.1" xmlns:xsi="http://www.w3.org/2001/XMLSchema-instance" xsi:schemaLocation="http://www.topografix.com/GPX/1/1 http://www.topografix.com/GPX/1/1/gpx.xsd http://www.garmin.com/xmlschemas/GpxExtensions/v3 http://www.garmin.com/xmlschemas/GpxExtensionsv3.xsd http://www.garmin.com/xmlschemas/TrackPointExtension/v1 http://www.garmin.com/xmlschemas/TrackPointExtensionv1.xsd" xmlns:gpxtpx="http://www.garmin.com/xmlschemas/TrackPointExtension/v1">
  <metadata>
    <link href="http://www.compegps.com">
      <text>CompeGPS TEAM, SL</text>
    </link>
    <time>2013-03-10T09:48:31Z</time>
    <bounds maxlat="42.879724" maxlon="1.359447" minlat="42.853550" minlon="1.337381"/>
  </metadata>
<wpt lat="42.875042" lon="1.348189">
  <ele>830</ele>
  <name>Granges de Cancarous</name>
</wpt>
<wpt lat="42.866255" lon="1.345291">
  <ele>1040</ele>
  <name>Quitter piste fores.</name>
</wpt>
<wpt lat="42.853644" lon="1.337381">
  <ele>1611</ele>
  <name>Pic de Balmiou</name>
</wpt>
<wpt lat="42.867006" lon="1.359352">
  <ele>1200</ele>
  <name>Aire de pique-nique</name>
</wpt>
<wpt lat="42.876836" lon="1.353242">
  <ele>979</ele>
  <name>Cab. de Claustre</name>
</wpt>
  <trk>
    <name>pic de Balmiou</name>
    <trkseg>
      <trkpt lat="42.875042" lon="1.348189">
        <ele>816.8</ele>
        <time>2013-03-08T08:25:23Z</time>
        <name>Granges de Cancarous</name>
      </trkpt>
      <trkpt lat="42.874925" lon="1.348111">
        <ele>818.7</ele>
        <time>2013-03-08T08:25:34Z</time>
      </trkpt>
      <trkpt lat="42.874807" lon="1.348125">
        <ele>820.1</ele>
        <time>2013-03-08T08:25:45Z</time>
      </trkpt>
      <trkpt lat="42.874702" lon="1.348202">
        <ele>821.6</ele>
        <time>2013-03-08T08:25:57Z</time>
      </trkpt>
      <trkpt lat="42.874595" lon="1.348275">
        <ele>823.5</ele>
        <time>2013-03-08T08:26:11Z</time>
      </trkpt>
      <trkpt lat="42.874504" lon="1.348359">
        <ele>825.4</ele>
        <time>2013-03-08T08:26:25Z</time>
      </trkpt>
      <trkpt lat="42.874384" lon="1.348422">
        <ele>826.4</ele>
        <time>2013-03-08T08:26:39Z</time>
      </trkpt>
      <trkpt lat="42.874286" lon="1.348500">
        <ele>828.3</ele>
        <time>2013-03-08T08:26:51Z</time>
      </trkpt>
      <trkpt lat="42.874185" lon="1.348586">
        <ele>829.3</ele>
        <time>2013-03-08T08:27:06Z</time>
      </trkpt>
      <trkpt lat="42.874069" lon="1.348621">
        <ele>830.7</ele>
        <time>2013-03-08T08:27:19Z</time>
      </trkpt>
      <trkpt lat="42.873968" lon="1.348690">
        <ele>832.6</ele>
        <time>2013-03-08T08:27:31Z</time>
      </trkpt>
      <trkpt lat="42.873849" lon="1.348774">
        <ele>834.6</ele>
        <time>2013-03-08T08:27:46Z</time>
      </trkpt>
      <trkpt lat="42.873738" lon="1.348842">
        <ele>836.0</ele>
        <time>2013-03-08T08:27:59Z</time>
      </trkpt>
      <trkpt lat="42.873636" lon="1.348923">
        <ele>837.9</ele>
        <time>2013-03-08T08:28:13Z</time>
      </trkpt>
      <trkpt lat="42.873532" lon="1.348994">
        <ele>839.8</ele>
        <time>2013-03-08T08:28:26Z</time>
      </trkpt>
      <trkpt lat="42.873437" lon="1.349112">
        <ele>841.8</ele>
        <time>2013-03-08T08:28:40Z</time>
      </trkpt>
      <trkpt lat="42.873354" lon="1.349233">
        <ele>842.2</ele>
        <time>2013-03-08T08:28:54Z</time>
      </trkpt>
      <trkpt lat="42.873297" lon="1.349298">
        <ele>842.7</ele>
        <time>2013-03-08T08:29:13Z</time>
      </trkpt>
      <trkpt lat="42.873197" lon="1.349375">
        <ele>844.7</ele>
        <time>2013-03-08T08:29:27Z</time>
      </trkpt>
      <trkpt lat="42.873108" lon="1.349446">
        <ele>846.1</ele>
        <time>2013-03-08T08:29:45Z</time>
      </trkpt>
      <trkpt lat="42.872990" lon="1.349481">
        <ele>847.5</ele>
        <time>2013-03-08T08:29:57Z</time>
      </trkpt>
      <trkpt lat="42.872898" lon="1.349522">
        <ele>849.5</ele>
        <time>2013-03-08T08:30:08Z</time>
      </trkpt>
      <trkpt lat="42.872794" lon="1.349612">
        <ele>850.4</ele>
        <time>2013-03-08T08:30:19Z</time>
      </trkpt>
      <trkpt lat="42.872694" lon="1.349680">
        <ele>851.4</ele>
        <time>2013-03-08T08:30:29Z</time>
      </trkpt>
      <trkpt lat="42.872596" lon="1.349776">
        <ele>852.8</ele>
        <time>2013-03-08T08:30:39Z</time>
      </trkpt>
      <trkpt lat="42.872510" lon="1.349869">
        <ele>854.3</ele>
        <time>2013-03-08T08:30:50Z</time>
      </trkpt>
      <trkpt lat="42.872436" lon="1.349987">
        <ele>855.2</ele>
        <time>2013-03-08T08:31:01Z</time>
      </trkpt>
      <trkpt lat="42.872380" lon="1.350103">
        <ele>856.7</ele>
        <time>2013-03-08T08:31:11Z</time>
      </trkpt>
      <trkpt lat="42.872306" lon="1.350226">
        <ele>857.2</ele>
        <time>2013-03-08T08:31:22Z</time>
      </trkpt>
      <trkpt lat="42.872219" lon="1.350298">
        <ele>859.1</ele>
        <time>2013-03-08T08:31:34Z</time>
      </trkpt>
      <trkpt lat="42.872102" lon="1.350320">
        <ele>859.6</ele>
        <time>2013-03-08T08:31:46Z</time>
      </trkpt>
      <trkpt lat="42.871984" lon="1.350349">
        <ele>861.5</ele>
        <time>2013-03-08T08:31:56Z</time>
      </trkpt>
      <trkpt lat="42.871876" lon="1.350401">
        <ele>862.4</ele>
        <time>2013-03-08T08:32:07Z</time>
      </trkpt>
      <trkpt lat="42.871784" lon="1.350496">
        <ele>864.4</ele>
        <time>2013-03-08T08:32:18Z</time>
      </trkpt>
      <trkpt lat="42.871697" lon="1.350603">
        <ele>865.3</ele>
        <time>2013-03-08T08:32:30Z</time>
      </trkpt>
      <trkpt lat="42.871600" lon="1.350701">
        <ele>865.8</ele>
        <time>2013-03-08T08:32:41Z</time>
      </trkpt>
      <trkpt lat="42.871507" lon="1.350791">
        <ele>867.7</ele>
        <time>2013-03-08T08:32:52Z</time>
      </trkpt>
      <trkpt lat="42.871403" lon="1.350868">
        <ele>869.2</ele>
        <time>2013-03-08T08:33:05Z</time>
      </trkpt>
      <trkpt lat="42.871286" lon="1.350905">
        <ele>870.1</ele>
        <time>2013-03-08T08:33:18Z</time>
      </trkpt>
      <trkpt lat="42.871170" lon="1.350949">
        <ele>871.1</ele>
        <time>2013-03-08T08:33:28Z</time>
      </trkpt>
      <trkpt lat="42.871066" lon="1.350959">
        <ele>872.5</ele>
        <time>2013-03-08T08:33:38Z</time>
      </trkpt>
      <trkpt lat="42.870949" lon="1.350983">
        <ele>873.5</ele>
        <time>2013-03-08T08:33:50Z</time>
      </trkpt>
      <trkpt lat="42.870827" lon="1.351040">
        <ele>875.4</ele>
        <time>2013-03-08T08:34:01Z</time>
      </trkpt>
      <trkpt lat="42.870716" lon="1.351105">
        <ele>876.9</ele>
        <time>2013-03-08T08:34:11Z</time>
      </trkpt>
      <trkpt lat="42.870637" lon="1.351191">
        <ele>878.3</ele>
        <time>2013-03-08T08:34:22Z</time>
      </trkpt>
      <trkpt lat="42.870569" lon="1.351318">
        <ele>880.2</ele>
        <time>2013-03-08T08:34:33Z</time>
      </trkpt>
      <trkpt lat="42.870518" lon="1.351454">
        <ele>880.7</ele>
        <time>2013-03-08T08:34:43Z</time>
      </trkpt>
      <trkpt lat="42.870465" lon="1.351570">
        <ele>882.6</ele>
        <time>2013-03-08T08:34:53Z</time>
      </trkpt>
      <trkpt lat="42.870389" lon="1.351677">
        <ele>884.1</ele>
        <time>2013-03-08T08:35:05Z</time>
      </trkpt>
      <trkpt lat="42.870291" lon="1.351777">
        <ele>885.5</ele>
        <time>2013-03-08T08:35:17Z</time>
      </trkpt>
      <trkpt lat="42.870200" lon="1.351847">
        <ele>887.0</ele>
        <time>2013-03-08T08:35:29Z</time>
      </trkpt>
      <trkpt lat="42.870101" lon="1.351919">
        <ele>888.4</ele>
        <time>2013-03-08T08:35:40Z</time>
      </trkpt>
      <trkpt lat="42.869988" lon="1.351980">
        <ele>889.4</ele>
        <time>2013-03-08T08:35:52Z</time>
      </trkpt>
      <trkpt lat="42.869879" lon="1.352016">
        <ele>890.8</ele>
        <time>2013-03-08T08:36:03Z</time>
      </trkpt>
      <trkpt lat="42.869775" lon="1.352059">
        <ele>891.8</ele>
        <time>2013-03-08T08:36:14Z</time>
      </trkpt>
      <trkpt lat="42.869673" lon="1.352134">
        <ele>892.7</ele>
        <time>2013-03-08T08:36:24Z</time>
      </trkpt>
      <trkpt lat="42.869573" lon="1.352272">
        <ele>894.2</ele>
        <time>2013-03-08T08:36:34Z</time>
      </trkpt>
      <trkpt lat="42.869534" lon="1.352391">
        <ele>895.6</ele>
        <time>2013-03-08T08:36:46Z</time>
      </trkpt>
      <trkpt lat="42.869450" lon="1.352511">
        <ele>897.0</ele>
        <time>2013-03-08T08:37:00Z</time>
      </trkpt>
      <trkpt lat="42.869355" lon="1.352612">
        <ele>898.5</ele>
        <time>2013-03-08T08:37:13Z</time>
      </trkpt>
      <trkpt lat="42.869254" lon="1.352723">
        <ele>899.5</ele>
        <time>2013-03-08T08:37:27Z</time>
      </trkpt>
      <trkpt lat="42.869164" lon="1.352827">
        <ele>900.9</ele>
        <time>2013-03-08T08:37:41Z</time>
      </trkpt>
      <trkpt lat="42.869090" lon="1.352927">
        <ele>902.8</ele>
        <time>2013-03-08T08:37:57Z</time>
      </trkpt>
      <trkpt lat="42.869014" lon="1.353032">
        <ele>903.3</ele>
        <time>2013-03-08T08:38:10Z</time>
      </trkpt>
      <trkpt lat="42.868937" lon="1.353134">
        <ele>905.2</ele>
        <time>2013-03-08T08:38:21Z</time>
      </trkpt>
      <trkpt lat="42.868853" lon="1.353234">
        <ele>906.7</ele>
        <time>2013-03-08T08:38:37Z</time>
      </trkpt>
      <trkpt lat="42.868728" lon="1.353213">
        <ele>907.6</ele>
        <time>2013-03-08T08:38:51Z</time>
      </trkpt>
      <trkpt lat="42.868660" lon="1.353106">
        <ele>910.0</ele>
        <time>2013-03-08T08:39:07Z</time>
      </trkpt>
      <trkpt lat="42.868658" lon="1.352932">
        <ele>911.5</ele>
        <time>2013-03-08T08:39:23Z</time>
      </trkpt>
      <trkpt lat="42.868678" lon="1.352844">
        <ele>911.5</ele>
        <time>2013-03-08T08:40:20Z</time>
      </trkpt>
      <trkpt lat="42.868705" lon="1.352733">
        <ele>916.8</ele>
        <time>2013-03-08T08:45:30Z</time>
      </trkpt>
      <trkpt lat="42.868781" lon="1.352649">
        <ele>918.2</ele>
        <time>2013-03-08T08:45:44Z</time>
      </trkpt>
      <trkpt lat="42.868810" lon="1.352521">
        <ele>919.6</ele>
        <time>2013-03-08T08:45:59Z</time>
      </trkpt>
      <trkpt lat="42.868814" lon="1.352363">
        <ele>921.1</ele>
        <time>2013-03-08T08:46:13Z</time>
      </trkpt>
      <trkpt lat="42.868829" lon="1.352213">
        <ele>923.0</ele>
        <time>2013-03-08T08:46:26Z</time>
      </trkpt>
      <trkpt lat="42.868819" lon="1.352072">
        <ele>924.0</ele>
        <time>2013-03-08T08:46:43Z</time>
      </trkpt>
      <trkpt lat="42.868803" lon="1.351932">
        <ele>924.9</ele>
        <time>2013-03-08T08:46:59Z</time>
      </trkpt>
      <trkpt lat="42.868809" lon="1.351771">
        <ele>926.4</ele>
        <time>2013-03-08T08:47:14Z</time>
      </trkpt>
      <trkpt lat="42.868855" lon="1.351656">
        <ele>927.3</ele>
        <time>2013-03-08T08:47:29Z</time>
      </trkpt>
      <trkpt lat="42.868883" lon="1.351529">
        <ele>928.8</ele>
        <time>2013-03-08T08:47:43Z</time>
      </trkpt>
      <trkpt lat="42.868919" lon="1.351402">
        <ele>930.2</ele>
        <time>2013-03-08T08:47:58Z</time>
      </trkpt>
      <trkpt lat="42.868954" lon="1.351275">
        <ele>931.2</ele>
        <time>2013-03-08T08:48:13Z</time>
      </trkpt>
      <trkpt lat="42.868938" lon="1.351154">
        <ele>932.6</ele>
        <time>2013-03-08T08:48:32Z</time>
      </trkpt>
      <trkpt lat="42.868842" lon="1.351045">
        <ele>934.1</ele>
        <time>2013-03-08T08:48:48Z</time>
      </trkpt>
      <trkpt lat="42.868763" lon="1.350966">
        <ele>934.5</ele>
        <time>2013-03-08T08:49:01Z</time>
      </trkpt>
      <trkpt lat="42.868671" lon="1.350882">
        <ele>936.5</ele>
        <time>2013-03-08T08:49:16Z</time>
      </trkpt>
      <trkpt lat="42.868579" lon="1.350796">
        <ele>937.4</ele>
        <time>2013-03-08T08:49:31Z</time>
      </trkpt>
      <trkpt lat="42.868505" lon="1.350680">
        <ele>938.4</ele>
        <time>2013-03-08T08:49:43Z</time>
      </trkpt>
      <trkpt lat="42.868441" lon="1.350602">
        <ele>939.8</ele>
        <time>2013-03-08T08:49:55Z</time>
      </trkpt>
      <trkpt lat="42.868348" lon="1.350504">
        <ele>941.3</ele>
        <time>2013-03-08T08:50:08Z</time>
      </trkpt>
      <trkpt lat="42.868257" lon="1.350430">
        <ele>942.7</ele>
        <time>2013-03-08T08:50:21Z</time>
      </trkpt>
      <trkpt lat="42.868157" lon="1.350332">
        <ele>943.7</ele>
        <time>2013-03-08T08:50:35Z</time>
      </trkpt>
      <trkpt lat="42.868055" lon="1.350253">
        <ele>945.6</ele>
        <time>2013-03-08T08:50:48Z</time>
      </trkpt>
      <trkpt lat="42.867950" lon="1.350137">
        <ele>946.6</ele>
        <time>2013-03-08T08:51:02Z</time>
      </trkpt>
      <trkpt lat="42.867824" lon="1.350051">
        <ele>948.5</ele>
        <time>2013-03-08T08:51:20Z</time>
      </trkpt>
      <trkpt lat="42.867732" lon="1.349986">
        <ele>949.4</ele>
        <time>2013-03-08T08:51:34Z</time>
      </trkpt>
      <trkpt lat="42.867634" lon="1.349978">
        <ele>951.4</ele>
        <time>2013-03-08T08:51:50Z</time>
      </trkpt>
      <trkpt lat="42.867531" lon="1.349998">
        <ele>953.3</ele>
        <time>2013-03-08T08:52:07Z</time>
      </trkpt>
      <trkpt lat="42.867417" lon="1.350000">
        <ele>954.7</ele>
        <time>2013-03-08T08:52:23Z</time>
      </trkpt>
      <trkpt lat="42.867304" lon="1.350003">
        <ele>956.2</ele>
        <time>2013-03-08T08:52:36Z</time>
      </trkpt>
      <trkpt lat="42.867169" lon="1.349977">
        <ele>957.6</ele>
        <time>2013-03-08T08:52:50Z</time>
      </trkpt>
      <trkpt lat="42.867084" lon="1.349957">
        <ele>959.0</ele>
        <time>2013-03-08T08:53:04Z</time>
      </trkpt>
      <trkpt lat="42.866988" lon="1.349955">
        <ele>959.5</ele>
        <time>2013-03-08T08:53:18Z</time>
      </trkpt>
      <trkpt lat="42.866941" lon="1.349940">
        <ele>960.5</ele>
        <time>2013-03-08T08:54:07Z</time>
      </trkpt>
      <trkpt lat="42.866917" lon="1.349911">
        <ele>961.9</ele>
        <time>2013-03-08T08:55:45Z</time>
      </trkpt>
      <trkpt lat="42.866802" lon="1.349873">
        <ele>963.4</ele>
        <time>2013-03-08T08:56:00Z</time>
      </trkpt>
      <trkpt lat="42.866724" lon="1.349843">
        <ele>965.3</ele>
        <time>2013-03-08T08:56:14Z</time>
      </trkpt>
      <trkpt lat="42.866619" lon="1.349805">
        <ele>966.3</ele>
        <time>2013-03-08T08:56:29Z</time>
      </trkpt>
      <trkpt lat="42.866503" lon="1.349809">
        <ele>968.2</ele>
        <time>2013-03-08T08:56:43Z</time>
      </trkpt>
      <trkpt lat="42.866375" lon="1.349793">
        <ele>969.6</ele>
        <time>2013-03-08T08:57:01Z</time>
      </trkpt>
      <trkpt lat="42.866267" lon="1.349761">
        <ele>971.5</ele>
        <time>2013-03-08T08:57:19Z</time>
      </trkpt>
      <trkpt lat="42.866160" lon="1.349733">
        <ele>972.5</ele>
        <time>2013-03-08T08:57:34Z</time>
      </trkpt>
      <trkpt lat="42.866057" lon="1.349707">
        <ele>974.0</ele>
        <time>2013-03-08T08:57:47Z</time>
      </trkpt>
      <trkpt lat="42.865952" lon="1.349709">
        <ele>975.9</ele>
        <time>2013-03-08T08:58:06Z</time>
      </trkpt>
      <trkpt lat="42.865854" lon="1.349678">
        <ele>976.8</ele>
        <time>2013-03-08T08:58:21Z</time>
      </trkpt>
      <trkpt lat="42.865742" lon="1.349709">
        <ele>978.3</ele>
        <time>2013-03-08T08:58:36Z</time>
      </trkpt>
      <trkpt lat="42.865644" lon="1.349754">
        <ele>979.7</ele>
        <time>2013-03-08T08:58:50Z</time>
      </trkpt>
      <trkpt lat="42.865523" lon="1.349824">
        <ele>980.7</ele>
        <time>2013-03-08T08:59:05Z</time>
      </trkpt>
      <trkpt lat="42.865426" lon="1.349882">
        <ele>982.6</ele>
        <time>2013-03-08T08:59:26Z</time>
      </trkpt>
      <trkpt lat="42.865285" lon="1.349969">
        <ele>984.5</ele>
        <time>2013-03-08T08:59:46Z</time>
      </trkpt>
      <trkpt lat="42.865192" lon="1.349986">
        <ele>986.0</ele>
        <time>2013-03-08T09:00:05Z</time>
      </trkpt>
      <trkpt lat="42.865102" lon="1.349958">
        <ele>987.4</ele>
        <time>2013-03-08T09:00:19Z</time>
      </trkpt>
      <trkpt lat="42.865013" lon="1.349974">
        <ele>989.3</ele>
        <time>2013-03-08T09:00:35Z</time>
      </trkpt>
      <trkpt lat="42.864909" lon="1.349944">
        <ele>990.3</ele>
        <time>2013-03-08T09:00:50Z</time>
      </trkpt>
      <trkpt lat="42.864811" lon="1.349904">
        <ele>991.3</ele>
        <time>2013-03-08T09:01:04Z</time>
      </trkpt>
      <trkpt lat="42.864712" lon="1.349838">
        <ele>993.7</ele>
        <time>2013-03-08T09:01:18Z</time>
      </trkpt>
      <trkpt lat="42.864627" lon="1.349758">
        <ele>994.6</ele>
        <time>2013-03-08T09:01:35Z</time>
      </trkpt>
      <trkpt lat="42.864541" lon="1.349636">
        <ele>995.6</ele>
        <time>2013-03-08T09:01:51Z</time>
      </trkpt>
      <trkpt lat="42.864469" lon="1.349541">
        <ele>996.1</ele>
        <time>2013-03-08T09:02:04Z</time>
      </trkpt>
      <trkpt lat="42.864388" lon="1.349441">
        <ele>997.0</ele>
        <time>2013-03-08T09:02:19Z</time>
      </trkpt>
      <trkpt lat="42.864371" lon="1.349293">
        <ele>998.0</ele>
        <time>2013-03-08T09:02:35Z</time>
      </trkpt>
      <trkpt lat="42.864460" lon="1.349329">
        <ele>999.9</ele>
        <time>2013-03-08T09:02:55Z</time>
      </trkpt>
      <trkpt lat="42.864561" lon="1.349426">
        <ele>1000.9</ele>
        <time>2013-03-08T09:03:09Z</time>
      </trkpt>
      <trkpt lat="42.864651" lon="1.349488">
        <ele>1002.3</ele>
        <time>2013-03-08T09:03:22Z</time>
      </trkpt>
      <trkpt lat="42.864764" lon="1.349356">
        <ele>1003.3</ele>
        <time>2013-03-08T09:03:35Z</time>
      </trkpt>
      <trkpt lat="42.864897" lon="1.349077">
        <ele>1004.7</ele>
        <time>2013-03-08T09:03:47Z</time>
      </trkpt>
      <trkpt lat="42.864885" lon="1.348923">
        <ele>1005.7</ele>
        <time>2013-03-08T09:04:01Z</time>
      </trkpt>
      <trkpt lat="42.864919" lon="1.348769">
        <ele>1007.1</ele>
        <time>2013-03-08T09:04:19Z</time>
      </trkpt>
      <trkpt lat="42.864880" lon="1.348643">
        <ele>1009.0</ele>
        <time>2013-03-08T09:04:39Z</time>
      </trkpt>
      <trkpt lat="42.864899" lon="1.348489">
        <ele>1009.5</ele>
        <time>2013-03-08T09:05:01Z</time>
      </trkpt>
      <trkpt lat="42.864961" lon="1.348344">
        <ele>1011.4</ele>
        <time>2013-03-08T09:05:18Z</time>
      </trkpt>
      <trkpt lat="42.864940" lon="1.348211">
        <ele>1012.4</ele>
        <time>2013-03-08T09:06:11Z</time>
      </trkpt>
      <trkpt lat="42.864977" lon="1.348067">
        <ele>1013.4</ele>
        <time>2013-03-08T09:06:24Z</time>
      </trkpt>
      <trkpt lat="42.865012" lon="1.347953">
        <ele>1014.3</ele>
        <time>2013-03-08T09:06:40Z</time>
      </trkpt>
      <trkpt lat="42.865033" lon="1.347834">
        <ele>1015.8</ele>
        <time>2013-03-08T09:07:01Z</time>
      </trkpt>
      <trkpt lat="42.865139" lon="1.347836">
        <ele>1016.7</ele>
        <time>2013-03-08T09:07:22Z</time>
      </trkpt>
      <trkpt lat="42.865278" lon="1.347761">
        <ele>1018.7</ele>
        <time>2013-03-08T09:07:43Z</time>
      </trkpt>
      <trkpt lat="42.865437" lon="1.347624">
        <ele>1020.1</ele>
        <time>2013-03-08T09:08:01Z</time>
      </trkpt>
      <trkpt lat="42.865483" lon="1.347519">
        <ele>1020.6</ele>
        <time>2013-03-08T09:08:18Z</time>
      </trkpt>
      <trkpt lat="42.865506" lon="1.347413">
        <ele>1022.0</ele>
        <time>2013-03-08T09:08:38Z</time>
      </trkpt>
      <trkpt lat="42.865552" lon="1.347302">
        <ele>1022.5</ele>
        <time>2013-03-08T09:08:52Z</time>
      </trkpt>
      <trkpt lat="42.865626" lon="1.347223">
        <ele>1023.5</ele>
        <time>2013-03-08T09:09:07Z</time>
      </trkpt>
      <trkpt lat="42.865720" lon="1.347184">
        <ele>1024.9</ele>
        <time>2013-03-08T09:09:23Z</time>
      </trkpt>
      <trkpt lat="42.865862" lon="1.347029">
        <ele>1025.9</ele>
        <time>2013-03-08T09:09:38Z</time>
      </trkpt>
      <trkpt lat="42.865963" lon="1.346912">
        <ele>1027.3</ele>
        <time>2013-03-08T09:09:52Z</time>
      </trkpt>
      <trkpt lat="42.866045" lon="1.346813">
        <ele>1028.3</ele>
        <time>2013-03-08T09:10:06Z</time>
      </trkpt>
      <trkpt lat="42.866092" lon="1.346699">
        <ele>1029.2</ele>
        <time>2013-03-08T09:10:22Z</time>
      </trkpt>
      <trkpt lat="42.866174" lon="1.346612">
        <ele>1031.2</ele>
        <time>2013-03-08T09:10:39Z</time>
      </trkpt>
      <trkpt lat="42.866287" lon="1.346512">
        <ele>1032.1</ele>
        <time>2013-03-08T09:10:55Z</time>
      </trkpt>
      <trkpt lat="42.866391" lon="1.346404">
        <ele>1032.6</ele>
        <time>2013-03-08T09:11:08Z</time>
      </trkpt>
      <trkpt lat="42.866469" lon="1.346327">
        <ele>1033.6</ele>
        <time>2013-03-08T09:11:22Z</time>
      </trkpt>
      <trkpt lat="42.866551" lon="1.346237">
        <ele>1034.5</ele>
        <time>2013-03-08T09:11:38Z</time>
      </trkpt>
      <trkpt lat="42.866609" lon="1.346152">
        <ele>1035.5</ele>
        <time>2013-03-08T09:11:55Z</time>
      </trkpt>
      <trkpt lat="42.866651" lon="1.346024">
        <ele>1037.4</ele>
        <time>2013-03-08T09:12:11Z</time>
      </trkpt>
      <trkpt lat="42.866658" lon="1.345878">
        <ele>1038.4</ele>
        <time>2013-03-08T09:12:26Z</time>
      </trkpt>
      <trkpt lat="42.866593" lon="1.345771">
        <ele>1039.8</ele>
        <time>2013-03-08T09:12:41Z</time>
      </trkpt>
      <trkpt lat="42.866559" lon="1.345691">
        <ele>1040.8</ele>
        <time>2013-03-08T09:12:57Z</time>
      </trkpt>
      <trkpt lat="42.866473" lon="1.345582">
        <ele>1041.2</ele>
        <time>2013-03-08T09:13:13Z</time>
      </trkpt>
      <trkpt lat="42.866415" lon="1.345484">
        <ele>1041.7</ele>
        <time>2013-03-08T09:13:28Z</time>
      </trkpt>
      <trkpt lat="42.866368" lon="1.345392">
        <ele>1043.7</ele>
        <time>2013-03-08T09:13:40Z</time>
      </trkpt>
      <trkpt lat="42.866287" lon="1.345275">
        <ele>1043.7</ele>
        <time>2013-03-08T09:13:53Z</time>
      </trkpt>
      <trkpt lat="42.866227" lon="1.345209">
        <ele>1012.5</ele>
        <time>2013-03-08T09:18:42Z</time>
      </trkpt>
      <trkpt lat="42.866255" lon="1.345291">
        <ele>1012.7</ele>
        <time>2013-03-08T09:20:13Z</time>
        <name>Quitter piste fores.</name>
     </trkpt>
      <trkpt lat="42.866286" lon="1.345381">
        <ele>1049.9</ele>
        <time>2013-03-08T09:20:30Z</time>
      </trkpt>
      <trkpt lat="42.866286" lon="1.345511">
        <ele>1052.3</ele>
        <time>2013-03-08T09:20:47Z</time>
      </trkpt>
      <trkpt lat="42.866297" lon="1.345687">
        <ele>1054.7</ele>
        <time>2013-03-08T09:21:06Z</time>
      </trkpt>
      <trkpt lat="42.866214" lon="1.345739">
        <ele>1057.6</ele>
        <time>2013-03-08T09:22:05Z</time>
      </trkpt>
      <trkpt lat="42.866127" lon="1.345765">
        <ele>1062.4</ele>
        <time>2013-03-08T09:23:04Z</time>
      </trkpt>
      <trkpt lat="42.866029" lon="1.345797">
        <ele>1066.7</ele>
        <time>2013-03-08T09:23:30Z</time>
      </trkpt>
      <trkpt lat="42.865968" lon="1.345711">
        <ele>1072.5</ele>
        <time>2013-03-08T09:24:10Z</time>
      </trkpt>
      <trkpt lat="42.865868" lon="1.345770">
        <ele>1034.2</ele>
        <time>2013-03-08T09:24:46Z</time>
      </trkpt>
      <trkpt lat="42.865768" lon="1.345744">
        <ele>1079.2</ele>
        <time>2013-03-08T09:25:11Z</time>
      </trkpt>
      <trkpt lat="42.865718" lon="1.345632">
        <ele>1083.1</ele>
        <time>2013-03-08T09:25:47Z</time>
      </trkpt>
      <trkpt lat="42.865633" lon="1.345501">
        <ele>1084.0</ele>
        <time>2013-03-08T09:26:02Z</time>
      </trkpt>
      <trkpt lat="42.865568" lon="1.345581">
        <ele>1089.3</ele>
        <time>2013-03-08T09:26:40Z</time>
      </trkpt>
      <trkpt lat="42.865538" lon="1.345629">
        <ele>1094.1</ele>
        <time>2013-03-08T09:27:15Z</time>
      </trkpt>
      <trkpt lat="42.865456" lon="1.345558">
        <ele>1098.9</ele>
        <time>2013-03-08T09:27:43Z</time>
      </trkpt>
      <trkpt lat="42.865356" lon="1.345478">
        <ele>1101.8</ele>
        <time>2013-03-08T09:28:18Z</time>
      </trkpt>
      <trkpt lat="42.865289" lon="1.345399">
        <ele>1108.5</ele>
        <time>2013-03-08T09:29:19Z</time>
      </trkpt>
      <trkpt lat="42.865210" lon="1.345485">
        <ele>1069.9</ele>
        <time>2013-03-08T09:32:30Z</time>
      </trkpt>
      <trkpt lat="42.865167" lon="1.345663">
        <ele>1073.6</ele>
        <time>2013-03-08T09:33:15Z</time>
      </trkpt>
      <trkpt lat="42.865096" lon="1.345624">
        <ele>1098.0</ele>
        <time>2013-03-08T09:39:26Z</time>
      </trkpt>
      <trkpt lat="42.865047" lon="1.345616">
        <ele>1101.3</ele>
        <time>2013-03-08T09:39:55Z</time>
      </trkpt>
      <trkpt lat="42.864923" lon="1.345605">
        <ele>1108.1</ele>
        <time>2013-03-08T09:40:26Z</time>
      </trkpt>
      <trkpt lat="42.864814" lon="1.345589">
        <ele>1111.4</ele>
        <time>2013-03-08T09:40:51Z</time>
      </trkpt>
      <trkpt lat="42.864699" lon="1.345541">
        <ele>1118.2</ele>
        <time>2013-03-08T09:41:23Z</time>
      </trkpt>
      <trkpt lat="42.864643" lon="1.345420">
        <ele>1121.5</ele>
        <time>2013-03-08T09:41:46Z</time>
      </trkpt>
      <trkpt lat="42.864630" lon="1.345380">
        <ele>1123.4</ele>
        <time>2013-03-08T09:42:21Z</time>
      </trkpt>
      <trkpt lat="42.864548" lon="1.345304">
        <ele>1131.6</ele>
        <time>2013-03-08T09:45:09Z</time>
      </trkpt>
      <trkpt lat="42.864434" lon="1.345372">
        <ele>1137.9</ele>
        <time>2013-03-08T09:45:43Z</time>
      </trkpt>
      <trkpt lat="42.864363" lon="1.345337">
        <ele>1143.1</ele>
        <time>2013-03-08T09:46:27Z</time>
      </trkpt>
      <trkpt lat="42.864343" lon="1.345455">
        <ele>1146.5</ele>
        <time>2013-03-08T09:46:54Z</time>
      </trkpt>
      <trkpt lat="42.864228" lon="1.345491">
        <ele>1150.8</ele>
        <time>2013-03-08T09:47:17Z</time>
      </trkpt>
      <trkpt lat="42.864199" lon="1.345418">
        <ele>1154.7</ele>
        <time>2013-03-08T09:48:00Z</time>
      </trkpt>
      <trkpt lat="42.864094" lon="1.345462">
        <ele>1158.5</ele>
        <time>2013-03-08T09:48:21Z</time>
      </trkpt>
      <trkpt lat="42.863985" lon="1.345521">
        <ele>1161.9</ele>
        <time>2013-03-08T09:49:12Z</time>
      </trkpt>
      <trkpt lat="42.863883" lon="1.345524">
        <ele>1165.3</ele>
        <time>2013-03-08T09:49:35Z</time>
      </trkpt>
      <trkpt lat="42.863778" lon="1.345589">
        <ele>1169.1</ele>
        <time>2013-03-08T09:50:02Z</time>
      </trkpt>
      <trkpt lat="42.863684" lon="1.345643">
        <ele>1173.4</ele>
        <time>2013-03-08T09:50:26Z</time>
      </trkpt>
      <trkpt lat="42.863609" lon="1.345639">
        <ele>1174.9</ele>
        <time>2013-03-08T09:51:29Z</time>
      </trkpt>
      <trkpt lat="42.863533" lon="1.345737">
        <ele>1181.1</ele>
        <time>2013-03-08T09:53:39Z</time>
      </trkpt>
      <trkpt lat="42.863486" lon="1.345823">
        <ele>1185.0</ele>
        <time>2013-03-08T09:54:25Z</time>
      </trkpt>
      <trkpt lat="42.863333" lon="1.345871">
        <ele>1188.3</ele>
        <time>2013-03-08T09:55:00Z</time>
      </trkpt>
      <trkpt lat="42.863210" lon="1.345911">
        <ele>1190.7</ele>
        <time>2013-03-08T09:57:42Z</time>
      </trkpt>
      <trkpt lat="42.863110" lon="1.345923">
        <ele>1191.7</ele>
        <time>2013-03-08T09:58:14Z</time>
      </trkpt>
      <trkpt lat="42.862995" lon="1.345979">
        <ele>1195.1</ele>
        <time>2013-03-08T09:59:18Z</time>
      </trkpt>
      <trkpt lat="42.862891" lon="1.345931">
        <ele>1196.5</ele>
        <time>2013-03-08T10:00:05Z</time>
      </trkpt>
      <trkpt lat="42.862800" lon="1.346001">
        <ele>1199.9</ele>
        <time>2013-03-08T10:00:32Z</time>
      </trkpt>
      <trkpt lat="42.862697" lon="1.346022">
        <ele>1203.2</ele>
        <time>2013-03-08T10:01:09Z</time>
      </trkpt>
      <trkpt lat="42.862631" lon="1.346084">
        <ele>1207.1</ele>
        <time>2013-03-08T10:01:36Z</time>
      </trkpt>
      <trkpt lat="42.862563" lon="1.346081">
        <ele>1210.4</ele>
        <time>2013-03-08T10:01:55Z</time>
      </trkpt>
      <trkpt lat="42.862432" lon="1.346034">
        <ele>1211.9</ele>
        <time>2013-03-08T10:02:19Z</time>
      </trkpt>
      <trkpt lat="42.862316" lon="1.346145">
        <ele>1217.2</ele>
        <time>2013-03-08T10:03:27Z</time>
      </trkpt>
      <trkpt lat="42.862207" lon="1.346141">
        <ele>1219.1</ele>
        <time>2013-03-08T10:04:33Z</time>
      </trkpt>
      <trkpt lat="42.862133" lon="1.346192">
        <ele>1221.0</ele>
        <time>2013-03-08T10:05:06Z</time>
      </trkpt>
      <trkpt lat="42.862012" lon="1.346263">
        <ele>1225.3</ele>
        <time>2013-03-08T10:05:32Z</time>
      </trkpt>
      <trkpt lat="42.861929" lon="1.346287">
        <ele>1227.7</ele>
        <time>2013-03-08T10:05:48Z</time>
      </trkpt>
      <trkpt lat="42.861813" lon="1.346343">
        <ele>1230.6</ele>
        <time>2013-03-08T10:06:06Z</time>
      </trkpt>
      <trkpt lat="42.861738" lon="1.346355">
        <ele>1233.5</ele>
        <time>2013-03-08T10:06:35Z</time>
      </trkpt>
      <trkpt lat="42.861643" lon="1.346407">
        <ele>1235.9</ele>
        <time>2013-03-08T10:06:54Z</time>
      </trkpt>
      <trkpt lat="42.861550" lon="1.346418">
        <ele>1238.3</ele>
        <time>2013-03-08T10:07:20Z</time>
      </trkpt>
      <trkpt lat="42.861443" lon="1.346446">
        <ele>1243.1</ele>
        <time>2013-03-08T10:07:53Z</time>
      </trkpt>
      <trkpt lat="42.861353" lon="1.346452">
        <ele>1245.5</ele>
        <time>2013-03-08T10:08:13Z</time>
      </trkpt>
      <trkpt lat="42.861242" lon="1.346445">
        <ele>1248.4</ele>
        <time>2013-03-08T10:08:35Z</time>
      </trkpt>
      <trkpt lat="42.861099" lon="1.346455">
        <ele>1250.8</ele>
        <time>2013-03-08T10:08:56Z</time>
      </trkpt>
      <trkpt lat="42.860977" lon="1.346484">
        <ele>1254.7</ele>
        <time>2013-03-08T10:10:10Z</time>
      </trkpt>
      <trkpt lat="42.860893" lon="1.346401">
        <ele>1256.1</ele>
        <time>2013-03-08T10:15:01Z</time>
      </trkpt>
      <trkpt lat="42.860868" lon="1.346327">
        <ele>1255.6</ele>
        <time>2013-03-08T10:15:28Z</time>
      </trkpt>
      <trkpt lat="42.860812" lon="1.346207">
        <ele>1256.6</ele>
        <time>2013-03-08T10:15:44Z</time>
      </trkpt>
      <trkpt lat="42.860698" lon="1.346161">
        <ele>1258.5</ele>
        <time>2013-03-08T10:16:11Z</time>
      </trkpt>
      <trkpt lat="42.860644" lon="1.346243">
        <ele>1263.3</ele>
        <time>2013-03-08T10:16:52Z</time>
      </trkpt>
      <trkpt lat="42.860574" lon="1.346273">
        <ele>1265.2</ele>
        <time>2013-03-08T10:20:09Z</time>
      </trkpt>
      <trkpt lat="42.860543" lon="1.346355">
        <ele>1268.1</ele>
        <time>2013-03-08T10:20:37Z</time>
      </trkpt>
      <trkpt lat="42.860385" lon="1.346371">
        <ele>1272.9</ele>
        <time>2013-03-08T10:21:27Z</time>
      </trkpt>
      <trkpt lat="42.860326" lon="1.346290">
        <ele>1276.3</ele>
        <time>2013-03-08T10:21:54Z</time>
      </trkpt>
      <trkpt lat="42.860219" lon="1.346347">
        <ele>1282.1</ele>
        <time>2013-03-08T10:22:58Z</time>
      </trkpt>
      <trkpt lat="42.860143" lon="1.346368">
        <ele>1285.4</ele>
        <time>2013-03-08T10:23:26Z</time>
      </trkpt>
      <trkpt lat="42.859981" lon="1.346397">
        <ele>1290.7</ele>
        <time>2013-03-08T10:24:00Z</time>
      </trkpt>
      <trkpt lat="42.859950" lon="1.346399">
        <ele>1295.5</ele>
        <time>2013-03-08T10:24:32Z</time>
      </trkpt>
      <trkpt lat="42.859859" lon="1.346348">
        <ele>1298.9</ele>
        <time>2013-03-08T10:24:59Z</time>
      </trkpt>
      <trkpt lat="42.859752" lon="1.346372">
        <ele>1303.7</ele>
        <time>2013-03-08T10:25:36Z</time>
      </trkpt>
      <trkpt lat="42.859585" lon="1.346403">
        <ele>1310.9</ele>
        <time>2013-03-08T10:26:26Z</time>
      </trkpt>
      <trkpt lat="42.859495" lon="1.346289">
        <ele>1315.2</ele>
        <time>2013-03-08T10:27:05Z</time>
      </trkpt>
      <trkpt lat="42.859452" lon="1.346291">
        <ele>1318.6</ele>
        <time>2013-03-08T10:28:19Z</time>
      </trkpt>
      <trkpt lat="42.859347" lon="1.346294">
        <ele>1325.8</ele>
        <time>2013-03-08T10:29:40Z</time>
      </trkpt>
      <trkpt lat="42.859234" lon="1.346302">
        <ele>1331.6</ele>
        <time>2013-03-08T10:30:20Z</time>
      </trkpt>
      <trkpt lat="42.859089" lon="1.346319">
        <ele>1337.8</ele>
        <time>2013-03-08T10:31:01Z</time>
      </trkpt>
      <trkpt lat="42.858900" lon="1.346202">
        <ele>1341.2</ele>
        <time>2013-03-08T10:32:01Z</time>
      </trkpt>
      <trkpt lat="42.858734" lon="1.346167">
        <ele>1346.5</ele>
        <time>2013-03-08T10:32:43Z</time>
      </trkpt>
      <trkpt lat="42.858660" lon="1.346142">
        <ele>1352.2</ele>
        <time>2013-03-08T10:33:21Z</time>
      </trkpt>
      <trkpt lat="42.858493" lon="1.346047">
        <ele>1357.0</ele>
        <time>2013-03-08T10:33:58Z</time>
      </trkpt>
      <trkpt lat="42.858432" lon="1.346059">
        <ele>1360.9</ele>
        <time>2013-03-08T10:34:28Z</time>
      </trkpt>
      <trkpt lat="42.858299" lon="1.346091">
        <ele>1366.7</ele>
        <time>2013-03-08T10:35:12Z</time>
      </trkpt>
      <trkpt lat="42.858193" lon="1.346058">
        <ele>1370.0</ele>
        <time>2013-03-08T10:35:59Z</time>
      </trkpt>
      <trkpt lat="42.858123" lon="1.345968">
        <ele>1370.5</ele>
        <time>2013-03-08T10:36:25Z</time>
      </trkpt>
      <trkpt lat="42.858042" lon="1.345936">
        <ele>1372.4</ele>
        <time>2013-03-08T10:36:50Z</time>
      </trkpt>
      <trkpt lat="42.857951" lon="1.345954">
        <ele>1379.6</ele>
        <time>2013-03-08T10:37:46Z</time>
      </trkpt>
      <trkpt lat="42.857838" lon="1.345923">
        <ele>1382.0</ele>
        <time>2013-03-08T10:40:09Z</time>
      </trkpt>
      <trkpt lat="42.857777" lon="1.345913">
        <ele>1381.1</ele>
        <time>2013-03-08T10:40:52Z</time>
      </trkpt>
      <trkpt lat="42.857721" lon="1.345807">
        <ele>1384.9</ele>
        <time>2013-03-08T10:41:56Z</time>
      </trkpt>
      <trkpt lat="42.857645" lon="1.345808">
        <ele>1386.8</ele>
        <time>2013-03-08T10:42:40Z</time>
      </trkpt>
      <trkpt lat="42.857551" lon="1.345865">
        <ele>1388.8</ele>
        <time>2013-03-08T10:43:27Z</time>
      </trkpt>
      <trkpt lat="42.857342" lon="1.345787">
        <ele>1393.1</ele>
        <time>2013-03-08T10:44:51Z</time>
      </trkpt>
      <trkpt lat="42.857305" lon="1.345731">
        <ele>1395.5</ele>
        <time>2013-03-08T10:47:36Z</time>
      </trkpt>
      <trkpt lat="42.857212" lon="1.345802">
        <ele>1397.4</ele>
        <time>2013-03-08T10:47:55Z</time>
      </trkpt>
      <trkpt lat="42.857094" lon="1.345875">
        <ele>1400.3</ele>
        <time>2013-03-08T10:48:39Z</time>
      </trkpt>
      <trkpt lat="42.857019" lon="1.345777">
        <ele>1402.7</ele>
        <time>2013-03-08T10:49:09Z</time>
      </trkpt>
      <trkpt lat="42.857014" lon="1.345593">
        <ele>1404.6</ele>
        <time>2013-03-08T10:49:33Z</time>
      </trkpt>
      <trkpt lat="42.856914" lon="1.345607">
        <ele>1407.5</ele>
        <time>2013-03-08T10:51:22Z</time>
      </trkpt>
      <trkpt lat="42.856762" lon="1.345653">
        <ele>1411.8</ele>
        <time>2013-03-08T10:51:59Z</time>
      </trkpt>
      <trkpt lat="42.856665" lon="1.345652">
        <ele>1413.3</ele>
        <time>2013-03-08T10:52:25Z</time>
      </trkpt>
      <trkpt lat="42.856527" lon="1.345565">
        <ele>1418.1</ele>
        <time>2013-03-08T10:53:18Z</time>
      </trkpt>
      <trkpt lat="42.856457" lon="1.345396">
        <ele>1420.5</ele>
        <time>2013-03-08T10:53:52Z</time>
      </trkpt>
      <trkpt lat="42.856321" lon="1.345302">
        <ele>1424.8</ele>
        <time>2013-03-08T10:54:30Z</time>
      </trkpt>
      <trkpt lat="42.856202" lon="1.345146">
        <ele>1429.1</ele>
        <time>2013-03-08T10:55:02Z</time>
      </trkpt>
      <trkpt lat="42.856100" lon="1.345109">
        <ele>1433.9</ele>
        <time>2013-03-08T10:55:42Z</time>
      </trkpt>
      <trkpt lat="42.855978" lon="1.344993">
        <ele>1436.8</ele>
        <time>2013-03-08T10:56:08Z</time>
      </trkpt>
      <trkpt lat="42.855889" lon="1.344843">
        <ele>1439.2</ele>
        <time>2013-03-08T10:56:38Z</time>
      </trkpt>
      <trkpt lat="42.855727" lon="1.344666">
        <ele>1444.0</ele>
        <time>2013-03-08T10:57:30Z</time>
      </trkpt>
      <trkpt lat="42.855630" lon="1.344535">
        <ele>1446.0</ele>
        <time>2013-03-08T10:57:59Z</time>
      </trkpt>
      <trkpt lat="42.855571" lon="1.344375">
        <ele>1449.3</ele>
        <time>2013-03-08T10:58:36Z</time>
      </trkpt>
      <trkpt lat="42.855466" lon="1.344296">
        <ele>1450.8</ele>
        <time>2013-03-08T10:58:57Z</time>
      </trkpt>
      <trkpt lat="42.855476" lon="1.344247">
        <ele>1452.7</ele>
        <time>2013-03-08T11:02:17Z</time>
      </trkpt>
      <trkpt lat="42.855211" lon="1.344107">
        <ele>1454.6</ele>
        <time>2013-03-08T11:02:48Z</time>
      </trkpt>
      <trkpt lat="42.855090" lon="1.344004">
        <ele>1455.6</ele>
        <time>2013-03-08T11:03:12Z</time>
      </trkpt>
      <trkpt lat="42.855015" lon="1.343815">
        <ele>1457.0</ele>
        <time>2013-03-08T11:03:43Z</time>
      </trkpt>
      <trkpt lat="42.854879" lon="1.343677">
        <ele>1458.5</ele>
        <time>2013-03-08T11:04:09Z</time>
      </trkpt>
      <trkpt lat="42.854752" lon="1.343655">
        <ele>1458.9</ele>
        <time>2013-03-08T11:04:28Z</time>
      </trkpt>
      <trkpt lat="42.854679" lon="1.343595">
        <ele>1459.9</ele>
        <time>2013-03-08T11:05:21Z</time>
      </trkpt>
      <trkpt lat="42.854656" lon="1.343516">
        <ele>1460.4</ele>
        <time>2013-03-08T11:06:28Z</time>
      </trkpt>
      <trkpt lat="42.854593" lon="1.343384">
        <ele>1461.8</ele>
        <time>2013-03-08T11:07:15Z</time>
      </trkpt>
      <trkpt lat="42.854559" lon="1.343231">
        <ele>1463.3</ele>
        <time>2013-03-08T11:07:31Z</time>
      </trkpt>
      <trkpt lat="42.854533" lon="1.343112">
        <ele>1464.7</ele>
        <time>2013-03-08T11:07:47Z</time>
      </trkpt>
      <trkpt lat="42.854521" lon="1.342919">
        <ele>1466.2</ele>
        <time>2013-03-08T11:08:31Z</time>
      </trkpt>
      <trkpt lat="42.854573" lon="1.342816">
        <ele>1468.6</ele>
        <time>2013-03-08T11:08:50Z</time>
      </trkpt>
      <trkpt lat="42.854586" lon="1.342686">
        <ele>1471.4</ele>
        <time>2013-03-08T11:09:09Z</time>
      </trkpt>
      <trkpt lat="42.854646" lon="1.342627">
        <ele>1474.3</ele>
        <time>2013-03-08T11:09:30Z</time>
      </trkpt>
      <trkpt lat="42.854628" lon="1.342536">
        <ele>1478.2</ele>
        <time>2013-03-08T11:09:49Z</time>
      </trkpt>
      <trkpt lat="42.854611" lon="1.342430">
        <ele>1480.6</ele>
        <time>2013-03-08T11:10:14Z</time>
      </trkpt>
      <trkpt lat="42.854643" lon="1.342267">
        <ele>1483.4</ele>
        <time>2013-03-08T11:10:41Z</time>
      </trkpt>
      <trkpt lat="42.854646" lon="1.342190">
        <ele>1486.8</ele>
        <time>2013-03-08T11:11:01Z</time>
      </trkpt>
      <trkpt lat="42.854614" lon="1.342106">
        <ele>1491.1</ele>
        <time>2013-03-08T11:11:30Z</time>
      </trkpt>
      <trkpt lat="42.854582" lon="1.341977">
        <ele>1495.0</ele>
        <time>2013-03-08T11:11:56Z</time>
      </trkpt>
      <trkpt lat="42.854515" lon="1.341944">
        <ele>1498.8</ele>
        <time>2013-03-08T11:12:16Z</time>
      </trkpt>
      <trkpt lat="42.854464" lon="1.341876">
        <ele>1500.8</ele>
        <time>2013-03-08T11:12:42Z</time>
      </trkpt>
      <trkpt lat="42.854441" lon="1.341727">
        <ele>1504.1</ele>
        <time>2013-03-08T11:13:08Z</time>
      </trkpt>
      <trkpt lat="42.854408" lon="1.341602">
        <ele>1505.6</ele>
        <time>2013-03-08T11:13:34Z</time>
      </trkpt>
      <trkpt lat="42.854346" lon="1.341518">
        <ele>1507.5</ele>
        <time>2013-03-08T11:13:55Z</time>
      </trkpt>
      <trkpt lat="42.854290" lon="1.341392">
        <ele>1509.9</ele>
        <time>2013-03-08T11:14:15Z</time>
      </trkpt>
      <trkpt lat="42.854267" lon="1.341295">
        <ele>1514.2</ele>
        <time>2013-03-08T11:14:46Z</time>
      </trkpt>
      <trkpt lat="42.854230" lon="1.341167">
        <ele>1518.5</ele>
        <time>2013-03-08T11:15:15Z</time>
      </trkpt>
      <trkpt lat="42.854187" lon="1.341071">
        <ele>1521.9</ele>
        <time>2013-03-08T11:15:44Z</time>
      </trkpt>
      <trkpt lat="42.854115" lon="1.341027">
        <ele>1524.8</ele>
        <time>2013-03-08T11:16:08Z</time>
      </trkpt>
      <trkpt lat="42.854048" lon="1.340949">
        <ele>1527.7</ele>
        <time>2013-03-08T11:16:31Z</time>
      </trkpt>
      <trkpt lat="42.854013" lon="1.340794">
        <ele>1532.0</ele>
        <time>2013-03-08T11:17:05Z</time>
      </trkpt>
      <trkpt lat="42.853966" lon="1.340681">
        <ele>1534.4</ele>
        <time>2013-03-08T11:17:30Z</time>
      </trkpt>
      <trkpt lat="42.853929" lon="1.340580">
        <ele>1534.9</ele>
        <time>2013-03-08T11:19:05Z</time>
      </trkpt>
      <trkpt lat="42.853882" lon="1.340316">
        <ele>1540.7</ele>
        <time>2013-03-08T11:19:45Z</time>
      </trkpt>
      <trkpt lat="42.853865" lon="1.340084">
        <ele>1547.9</ele>
        <time>2013-03-08T11:20:36Z</time>
      </trkpt>
      <trkpt lat="42.853816" lon="1.339903">
        <ele>1554.6</ele>
        <time>2013-03-08T11:21:25Z</time>
      </trkpt>
      <trkpt lat="42.853777" lon="1.339748">
        <ele>1559.9</ele>
        <time>2013-03-08T11:22:07Z</time>
      </trkpt>
      <trkpt lat="42.853773" lon="1.339583">
        <ele>1566.1</ele>
        <time>2013-03-08T11:22:45Z</time>
      </trkpt>
      <trkpt lat="42.853731" lon="1.339422">
        <ele>1572.4</ele>
        <time>2013-03-08T11:23:41Z</time>
      </trkpt>
      <trkpt lat="42.853721" lon="1.339288">
        <ele>1576.7</ele>
        <time>2013-03-08T11:24:13Z</time>
      </trkpt>
      <trkpt lat="42.853727" lon="1.339153">
        <ele>1582.0</ele>
        <time>2013-03-08T11:24:52Z</time>
      </trkpt>
      <trkpt lat="42.853737" lon="1.338981">
        <ele>1587.8</ele>
        <time>2013-03-08T11:25:29Z</time>
      </trkpt>
      <trkpt lat="42.853722" lon="1.338816">
        <ele>1592.1</ele>
        <time>2013-03-08T11:25:53Z</time>
      </trkpt>
      <trkpt lat="42.853723" lon="1.338712">
        <ele>1595.0</ele>
        <time>2013-03-08T11:27:01Z</time>
      </trkpt>
      <trkpt lat="42.853712" lon="1.338605">
        <ele>1560.2</ele>
        <time>2013-03-08T11:27:27Z</time>
      </trkpt>
      <trkpt lat="42.853733" lon="1.338491">
        <ele>1601.7</ele>
        <time>2013-03-08T11:27:46Z</time>
      </trkpt>
      <trkpt lat="42.853750" lon="1.338385">
        <ele>1606.0</ele>
        <time>2013-03-08T11:28:08Z</time>
      </trkpt>
      <trkpt lat="42.853752" lon="1.338286">
        <ele>1563.7</ele>
        <time>2013-03-08T11:28:25Z</time>
      </trkpt>
      <trkpt lat="42.853751" lon="1.338174">
        <ele>1564.5</ele>
        <time>2013-03-08T11:28:41Z</time>
      </trkpt>
      <trkpt lat="42.853735" lon="1.338050">
        <ele>1566.3</ele>
        <time>2013-03-08T11:28:57Z</time>
      </trkpt>
      <trkpt lat="42.853720" lon="1.337920">
        <ele>1568.1</ele>
        <time>2013-03-08T11:29:10Z</time>
      </trkpt>
      <trkpt lat="42.853708" lon="1.337833">
        <ele>1569.4</ele>
        <time>2013-03-08T11:49:55Z</time>
      </trkpt>
      <trkpt lat="42.853721" lon="1.337705">
        <ele>1607.9</ele>
        <time>2013-03-08T11:50:12Z</time>
      </trkpt>
      <trkpt lat="42.853744" lon="1.337566">
        <ele>1607.0</ele>
        <time>2013-03-08T11:50:26Z</time>
      </trkpt>
      <trkpt lat="42.853769" lon="1.337429">
        <ele>1604.1</ele>
        <time>2013-03-08T11:50:39Z</time>
      </trkpt>
      <trkpt lat="42.853744" lon="1.337400">
        <ele>1604.6</ele>
        <time>2013-03-08T13:32:35Z</time>
      </trkpt>
      <trkpt lat="42.853644" lon="1.337381">
        <ele>1605.1</ele>
        <time>2013-03-08T13:32:46Z</time>
        <name>Pic de Balmiou</name>
      </trkpt>
      <trkpt lat="42.853580" lon="1.337395">
        <ele>1576.8</ele>
        <time>2013-03-08T13:32:56Z</time>
      </trkpt>
      <trkpt lat="42.853550" lon="1.337469">
        <ele>1605.5</ele>
        <time>2013-03-08T13:34:35Z</time>
      </trkpt>
      <trkpt lat="42.853623" lon="1.337547">
        <ele>1607.5</ele>
        <time>2013-03-08T13:34:49Z</time>
      </trkpt>
      <trkpt lat="42.853680" lon="1.337644">
        <ele>1607.9</ele>
        <time>2013-03-08T13:35:02Z</time>
      </trkpt>
      <trkpt lat="42.853688" lon="1.337758">
        <ele>1609.9</ele>
        <time>2013-03-08T13:35:14Z</time>
      </trkpt>
      <trkpt lat="42.853700" lon="1.337889">
        <ele>1610.8</ele>
        <time>2013-03-08T13:35:28Z</time>
      </trkpt>
      <trkpt lat="42.853711" lon="1.337983">
        <ele>1611.8</ele>
        <time>2013-03-08T13:36:03Z</time>
      </trkpt>
      <trkpt lat="42.853724" lon="1.338038">
        <ele>1610.8</ele>
        <time>2013-03-08T13:38:36Z</time>
      </trkpt>
      <trkpt lat="42.853737" lon="1.338145">
        <ele>1610.8</ele>
        <time>2013-03-08T13:38:50Z</time>
      </trkpt>
      <trkpt lat="42.853744" lon="1.338262">
        <ele>1609.9</ele>
        <time>2013-03-08T13:39:05Z</time>
      </trkpt>
      <trkpt lat="42.853743" lon="1.338386">
        <ele>1607.0</ele>
        <time>2013-03-08T13:39:17Z</time>
      </trkpt>
      <trkpt lat="42.853729" lon="1.338499">
        <ele>1602.2</ele>
        <time>2013-03-08T13:39:30Z</time>
      </trkpt>
      <trkpt lat="42.853694" lon="1.338617">
        <ele>1599.8</ele>
        <time>2013-03-08T13:39:56Z</time>
      </trkpt>
      <trkpt lat="42.853704" lon="1.338767">
        <ele>1557.5</ele>
        <time>2013-03-08T13:40:09Z</time>
      </trkpt>
      <trkpt lat="42.853763" lon="1.338890">
        <ele>1590.2</ele>
        <time>2013-03-08T13:40:27Z</time>
      </trkpt>
      <trkpt lat="42.853768" lon="1.339066">
        <ele>1584.4</ele>
        <time>2013-03-08T13:41:04Z</time>
      </trkpt>
      <trkpt lat="42.853758" lon="1.339275">
        <ele>1576.7</ele>
        <time>2013-03-08T13:41:25Z</time>
      </trkpt>
      <trkpt lat="42.853757" lon="1.339520">
        <ele>1567.6</ele>
        <time>2013-03-08T13:41:49Z</time>
      </trkpt>
      <trkpt lat="42.853738" lon="1.339696">
        <ele>1561.8</ele>
        <time>2013-03-08T13:42:29Z</time>
      </trkpt>
      <trkpt lat="42.853762" lon="1.339894">
        <ele>1553.6</ele>
        <time>2013-03-08T13:42:51Z</time>
      </trkpt>
      <trkpt lat="42.853850" lon="1.340099">
        <ele>1545.9</ele>
        <time>2013-03-08T13:43:20Z</time>
      </trkpt>
      <trkpt lat="42.853880" lon="1.340198">
        <ele>1541.1</ele>
        <time>2013-03-08T13:44:19Z</time>
      </trkpt>
      <trkpt lat="42.853952" lon="1.340350">
        <ele>1535.4</ele>
        <time>2013-03-08T13:44:48Z</time>
      </trkpt>
      <trkpt lat="42.853933" lon="1.340505">
        <ele>1532.0</ele>
        <time>2013-03-08T13:45:08Z</time>
      </trkpt>
      <trkpt lat="42.853972" lon="1.340637">
        <ele>1531.0</ele>
        <time>2013-03-08T13:45:22Z</time>
      </trkpt>
      <trkpt lat="42.853980" lon="1.340720">
        <ele>1530.1</ele>
        <time>2013-03-08T13:47:50Z</time>
      </trkpt>
      <trkpt lat="42.853994" lon="1.340772">
        <ele>1529.1</ele>
        <time>2013-03-08T13:48:45Z</time>
      </trkpt>
      <trkpt lat="42.854059" lon="1.340855">
        <ele>1526.2</ele>
        <time>2013-03-08T13:49:00Z</time>
      </trkpt>
      <trkpt lat="42.854105" lon="1.340970">
        <ele>1521.4</ele>
        <time>2013-03-08T13:49:16Z</time>
      </trkpt>
      <trkpt lat="42.854192" lon="1.341030">
        <ele>1519.5</ele>
        <time>2013-03-08T13:49:43Z</time>
      </trkpt>
      <trkpt lat="42.854259" lon="1.341145">
        <ele>1515.2</ele>
        <time>2013-03-08T13:49:55Z</time>
      </trkpt>
      <trkpt lat="42.854283" lon="1.341256">
        <ele>1510.8</ele>
        <time>2013-03-08T13:50:15Z</time>
      </trkpt>
      <trkpt lat="42.854348" lon="1.341387">
        <ele>1505.1</ele>
        <time>2013-03-08T13:50:30Z</time>
      </trkpt>
      <trkpt lat="42.854385" lon="1.341520">
        <ele>1502.2</ele>
        <time>2013-03-08T13:50:45Z</time>
      </trkpt>
      <trkpt lat="42.854437" lon="1.341642">
        <ele>1500.3</ele>
        <time>2013-03-08T13:51:00Z</time>
      </trkpt>
      <trkpt lat="42.854454" lon="1.341773">
        <ele>1499.3</ele>
        <time>2013-03-08T13:51:12Z</time>
      </trkpt>
      <trkpt lat="42.854506" lon="1.341890">
        <ele>1495.9</ele>
        <time>2013-03-08T13:51:25Z</time>
      </trkpt>
      <trkpt lat="42.854605" lon="1.341962">
        <ele>1491.6</ele>
        <time>2013-03-08T13:51:38Z</time>
      </trkpt>
      <trkpt lat="42.854635" lon="1.342080">
        <ele>1487.8</ele>
        <time>2013-03-08T13:51:50Z</time>
      </trkpt>
      <trkpt lat="42.854676" lon="1.342215">
        <ele>1483.9</ele>
        <time>2013-03-08T13:52:03Z</time>
      </trkpt>
      <trkpt lat="42.854674" lon="1.342366">
        <ele>1478.7</ele>
        <time>2013-03-08T13:52:15Z</time>
      </trkpt>
      <trkpt lat="42.854681" lon="1.342492">
        <ele>1475.3</ele>
        <time>2013-03-08T13:52:29Z</time>
      </trkpt>
      <trkpt lat="42.854672" lon="1.342686">
        <ele>1469.5</ele>
        <time>2013-03-08T13:52:46Z</time>
      </trkpt>
      <trkpt lat="42.854622" lon="1.342814">
        <ele>1466.2</ele>
        <time>2013-03-08T13:52:58Z</time>
      </trkpt>
      <trkpt lat="42.854544" lon="1.342903">
        <ele>1464.2</ele>
        <time>2013-03-08T13:56:14Z</time>
      </trkpt>
      <trkpt lat="42.854565" lon="1.343023">
        <ele>1464.7</ele>
        <time>2013-03-08T13:59:47Z</time>
      </trkpt>
      <trkpt lat="42.854588" lon="1.343194">
        <ele>1463.3</ele>
        <time>2013-03-08T14:00:00Z</time>
      </trkpt>
      <trkpt lat="42.854621" lon="1.343355">
        <ele>1462.3</ele>
        <time>2013-03-08T14:00:14Z</time>
      </trkpt>
      <trkpt lat="42.854661" lon="1.343493">
        <ele>1459.9</ele>
        <time>2013-03-08T14:00:27Z</time>
      </trkpt>
      <trkpt lat="42.854712" lon="1.343633">
        <ele>1458.9</ele>
        <time>2013-03-08T14:00:44Z</time>
      </trkpt>
      <trkpt lat="42.854784" lon="1.343729">
        <ele>1458.0</ele>
        <time>2013-03-08T14:00:57Z</time>
      </trkpt>
      <trkpt lat="42.854859" lon="1.343823">
        <ele>1457.0</ele>
        <time>2013-03-08T14:01:13Z</time>
      </trkpt>
      <trkpt lat="42.854927" lon="1.343934">
        <ele>1456.1</ele>
        <time>2013-03-08T14:01:25Z</time>
      </trkpt>
      <trkpt lat="42.855025" lon="1.344049">
        <ele>1455.1</ele>
        <time>2013-03-08T14:01:40Z</time>
      </trkpt>
      <trkpt lat="42.855070" lon="1.344177">
        <ele>1457.0</ele>
        <time>2013-03-08T14:01:55Z</time>
      </trkpt>
      <trkpt lat="42.855092" lon="1.344331">
        <ele>1459.4</ele>
        <time>2013-03-08T14:02:16Z</time>
      </trkpt>
      <trkpt lat="42.855132" lon="1.344464">
        <ele>1459.4</ele>
        <time>2013-03-08T14:03:02Z</time>
      </trkpt>
      <trkpt lat="42.855185" lon="1.344584">
        <ele>1458.5</ele>
        <time>2013-03-08T14:03:17Z</time>
      </trkpt>
      <trkpt lat="42.855213" lon="1.344726">
        <ele>1458.5</ele>
        <time>2013-03-08T14:03:31Z</time>
      </trkpt>
      <trkpt lat="42.855272" lon="1.344854">
        <ele>1455.6</ele>
        <time>2013-03-08T14:04:17Z</time>
      </trkpt>
      <trkpt lat="42.855329" lon="1.344953">
        <ele>1451.7</ele>
        <time>2013-03-08T14:04:48Z</time>
      </trkpt>
      <trkpt lat="42.855390" lon="1.345181">
        <ele>1446.9</ele>
        <time>2013-03-08T14:05:44Z</time>
      </trkpt>
      <trkpt lat="42.855501" lon="1.345326">
        <ele>1443.6</ele>
        <time>2013-03-08T14:06:05Z</time>
      </trkpt>
      <trkpt lat="42.855612" lon="1.345464">
        <ele>1440.2</ele>
        <time>2013-03-08T14:06:23Z</time>
      </trkpt>
      <trkpt lat="42.855618" lon="1.345654">
        <ele>1435.9</ele>
        <time>2013-03-08T14:06:44Z</time>
      </trkpt>
      <trkpt lat="42.855708" lon="1.345774">
        <ele>1431.1</ele>
        <time>2013-03-08T14:07:04Z</time>
      </trkpt>
      <trkpt lat="42.855755" lon="1.345960">
        <ele>1426.7</ele>
        <time>2013-03-08T14:08:17Z</time>
      </trkpt>
      <trkpt lat="42.855839" lon="1.346175">
        <ele>1423.4</ele>
        <time>2013-03-08T14:08:40Z</time>
      </trkpt>
      <trkpt lat="42.855962" lon="1.346266">
        <ele>1420.0</ele>
        <time>2013-03-08T14:08:56Z</time>
      </trkpt>
      <trkpt lat="42.856028" lon="1.346367">
        <ele>1419.5</ele>
        <time>2013-03-08T14:09:14Z</time>
      </trkpt>
      <trkpt lat="42.856080" lon="1.346481">
        <ele>1417.6</ele>
        <time>2013-03-08T14:09:34Z</time>
      </trkpt>
      <trkpt lat="42.856063" lon="1.346644">
        <ele>1415.7</ele>
        <time>2013-03-08T14:09:51Z</time>
      </trkpt>
      <trkpt lat="42.856121" lon="1.346765">
        <ele>1414.2</ele>
        <time>2013-03-08T14:10:21Z</time>
      </trkpt>
      <trkpt lat="42.856231" lon="1.346886">
        <ele>1413.8</ele>
        <time>2013-03-08T14:10:39Z</time>
      </trkpt>
      <trkpt lat="42.856245" lon="1.347055">
        <ele>1412.3</ele>
        <time>2013-03-08T14:10:59Z</time>
      </trkpt>
      <trkpt lat="42.856285" lon="1.347194">
        <ele>1412.3</ele>
        <time>2013-03-08T14:11:16Z</time>
      </trkpt>
      <trkpt lat="42.856315" lon="1.347386">
        <ele>1409.9</ele>
        <time>2013-03-08T14:11:33Z</time>
      </trkpt>
      <trkpt lat="42.856282" lon="1.347541">
        <ele>1409.9</ele>
        <time>2013-03-08T14:12:48Z</time>
      </trkpt>
      <trkpt lat="42.856287" lon="1.347701">
        <ele>1408.0</ele>
        <time>2013-03-08T14:13:07Z</time>
      </trkpt>
      <trkpt lat="42.856355" lon="1.347833">
        <ele>1408.5</ele>
        <time>2013-03-08T14:13:29Z</time>
      </trkpt>
      <trkpt lat="42.856375" lon="1.347950">
        <ele>1407.5</ele>
        <time>2013-03-08T14:13:55Z</time>
      </trkpt>
      <trkpt lat="42.856477" lon="1.348085">
        <ele>1406.1</ele>
        <time>2013-03-08T14:14:11Z</time>
      </trkpt>
      <trkpt lat="42.856548" lon="1.348222">
        <ele>1404.1</ele>
        <time>2013-03-08T14:14:26Z</time>
      </trkpt>
      <trkpt lat="42.856681" lon="1.348273">
        <ele>1401.3</ele>
        <time>2013-03-08T14:14:51Z</time>
      </trkpt>
      <trkpt lat="42.856821" lon="1.348286">
        <ele>1398.4</ele>
        <time>2013-03-08T14:15:11Z</time>
      </trkpt>
      <trkpt lat="42.856954" lon="1.348340">
        <ele>1394.5</ele>
        <time>2013-03-08T14:15:29Z</time>
      </trkpt>
      <trkpt lat="42.857135" lon="1.348391">
        <ele>1389.7</ele>
        <time>2013-03-08T14:15:53Z</time>
      </trkpt>
      <trkpt lat="42.857254" lon="1.348478">
        <ele>1385.4</ele>
        <time>2013-03-08T14:17:07Z</time>
      </trkpt>
      <trkpt lat="42.857437" lon="1.348450">
        <ele>1379.6</ele>
        <time>2013-03-08T14:17:32Z</time>
      </trkpt>
      <trkpt lat="42.857605" lon="1.348440">
        <ele>1373.9</ele>
        <time>2013-03-08T14:18:01Z</time>
      </trkpt>
      <trkpt lat="42.857664" lon="1.348651">
        <ele>1369.5</ele>
        <time>2013-03-08T14:18:45Z</time>
      </trkpt>
      <trkpt lat="42.857762" lon="1.348764">
        <ele>1366.7</ele>
        <time>2013-03-08T14:19:07Z</time>
      </trkpt>
      <trkpt lat="42.857833" lon="1.348973">
        <ele>1361.8</ele>
        <time>2013-03-08T14:19:32Z</time>
      </trkpt>
      <trkpt lat="42.857957" lon="1.349104">
        <ele>1357.5</ele>
        <time>2013-03-08T14:19:49Z</time>
      </trkpt>
      <trkpt lat="42.858018" lon="1.349252">
        <ele>1354.2</ele>
        <time>2013-03-08T14:20:04Z</time>
      </trkpt>
      <trkpt lat="42.858081" lon="1.349406">
        <ele>1350.8</ele>
        <time>2013-03-08T14:20:28Z</time>
      </trkpt>
      <trkpt lat="42.858162" lon="1.349584">
        <ele>1349.3</ele>
        <time>2013-03-08T14:20:54Z</time>
      </trkpt>
      <trkpt lat="42.858232" lon="1.349722">
        <ele>1347.4</ele>
        <time>2013-03-08T14:21:29Z</time>
      </trkpt>
      <trkpt lat="42.858304" lon="1.349834">
        <ele>1344.5</ele>
        <time>2013-03-08T14:21:55Z</time>
      </trkpt>
      <trkpt lat="42.858441" lon="1.349993">
        <ele>1342.1</ele>
        <time>2013-03-08T14:22:17Z</time>
      </trkpt>
      <trkpt lat="42.858559" lon="1.350064">
        <ele>1339.2</ele>
        <time>2013-03-08T14:23:16Z</time>
      </trkpt>
      <trkpt lat="42.858645" lon="1.350075">
        <ele>1338.3</ele>
        <time>2013-03-08T14:23:50Z</time>
      </trkpt>
      <trkpt lat="42.858667" lon="1.350238">
        <ele>1339.2</ele>
        <time>2013-03-08T14:24:06Z</time>
      </trkpt>
      <trkpt lat="42.858734" lon="1.350345">
        <ele>1336.4</ele>
        <time>2013-03-08T14:24:31Z</time>
      </trkpt>
      <trkpt lat="42.858783" lon="1.350504">
        <ele>1335.4</ele>
        <time>2013-03-08T14:25:11Z</time>
      </trkpt>
      <trkpt lat="42.858834" lon="1.350618">
        <ele>1335.4</ele>
        <time>2013-03-08T14:25:38Z</time>
      </trkpt>
      <trkpt lat="42.858876" lon="1.350705">
        <ele>1334.9</ele>
        <time>2013-03-08T14:25:57Z</time>
      </trkpt>
      <trkpt lat="42.858975" lon="1.350802">
        <ele>1332.0</ele>
        <time>2013-03-08T14:26:18Z</time>
      </trkpt>
      <trkpt lat="42.859065" lon="1.350935">
        <ele>1333.0</ele>
        <time>2013-03-08T14:26:46Z</time>
      </trkpt>
      <trkpt lat="42.859169" lon="1.350900">
        <ele>1329.6</ele>
        <time>2013-03-08T14:27:05Z</time>
      </trkpt>
      <trkpt lat="42.859282" lon="1.350937">
        <ele>1325.8</ele>
        <time>2013-03-08T14:27:30Z</time>
      </trkpt>
      <trkpt lat="42.859359" lon="1.351117">
        <ele>1327.7</ele>
        <time>2013-03-08T14:27:56Z</time>
      </trkpt>
      <trkpt lat="42.859461" lon="1.351218">
        <ele>1325.8</ele>
        <time>2013-03-08T14:28:30Z</time>
      </trkpt>
      <trkpt lat="42.859564" lon="1.351331">
        <ele>1326.8</ele>
        <time>2013-03-08T14:28:47Z</time>
      </trkpt>
      <trkpt lat="42.859689" lon="1.351448">
        <ele>1328.2</ele>
        <time>2013-03-08T14:29:15Z</time>
      </trkpt>
      <trkpt lat="42.859777" lon="1.351573">
        <ele>1329.2</ele>
        <time>2013-03-08T14:29:45Z</time>
      </trkpt>
      <trkpt lat="42.859819" lon="1.351695">
        <ele>1331.1</ele>
        <time>2013-03-08T14:30:04Z</time>
      </trkpt>
      <trkpt lat="42.859894" lon="1.351818">
        <ele>1331.6</ele>
        <time>2013-03-08T14:30:21Z</time>
      </trkpt>
      <trkpt lat="42.859932" lon="1.351944">
        <ele>1332.5</ele>
        <time>2013-03-08T14:30:35Z</time>
      </trkpt>
      <trkpt lat="42.860013" lon="1.352070">
        <ele>1333.5</ele>
        <time>2013-03-08T14:30:51Z</time>
      </trkpt>
      <trkpt lat="42.860090" lon="1.352172">
        <ele>1333.0</ele>
        <time>2013-03-08T14:31:04Z</time>
      </trkpt>
      <trkpt lat="42.860143" lon="1.352286">
        <ele>1331.6</ele>
        <time>2013-03-08T14:31:17Z</time>
      </trkpt>
      <trkpt lat="42.860200" lon="1.352419">
        <ele>1332.0</ele>
        <time>2013-03-08T14:31:31Z</time>
      </trkpt>
      <trkpt lat="42.860255" lon="1.352550">
        <ele>1332.5</ele>
        <time>2013-03-08T14:31:45Z</time>
      </trkpt>
      <trkpt lat="42.860318" lon="1.352659">
        <ele>1332.5</ele>
        <time>2013-03-08T14:32:00Z</time>
      </trkpt>
      <trkpt lat="42.860391" lon="1.352765">
        <ele>1332.5</ele>
        <time>2013-03-08T14:32:16Z</time>
      </trkpt>
      <trkpt lat="42.860474" lon="1.352873">
        <ele>1331.6</ele>
        <time>2013-03-08T14:32:50Z</time>
      </trkpt>
      <trkpt lat="42.860531" lon="1.353031">
        <ele>1331.6</ele>
        <time>2013-03-08T14:33:12Z</time>
      </trkpt>
      <trkpt lat="42.860561" lon="1.353164">
        <ele>1332.0</ele>
        <time>2013-03-08T14:33:28Z</time>
      </trkpt>
      <trkpt lat="42.860629" lon="1.353293">
        <ele>1332.5</ele>
        <time>2013-03-08T14:33:52Z</time>
      </trkpt>
      <trkpt lat="42.860680" lon="1.353445">
        <ele>1334.9</ele>
        <time>2013-03-08T14:34:17Z</time>
      </trkpt>
      <trkpt lat="42.860758" lon="1.353576">
        <ele>1334.9</ele>
        <time>2013-03-08T14:34:37Z</time>
      </trkpt>
      <trkpt lat="42.860802" lon="1.353721">
        <ele>1335.4</ele>
        <time>2013-03-08T14:34:56Z</time>
      </trkpt>
      <trkpt lat="42.860854" lon="1.353875">
        <ele>1335.4</ele>
        <time>2013-03-08T14:35:20Z</time>
      </trkpt>
      <trkpt lat="42.860902" lon="1.354046">
        <ele>1335.9</ele>
        <time>2013-03-08T14:35:42Z</time>
      </trkpt>
      <trkpt lat="42.860951" lon="1.354199">
        <ele>1333.0</ele>
        <time>2013-03-08T14:36:32Z</time>
      </trkpt>
      <trkpt lat="42.860989" lon="1.354355">
        <ele>1331.1</ele>
        <time>2013-03-08T14:36:49Z</time>
      </trkpt>
      <trkpt lat="42.861049" lon="1.354514">
        <ele>1328.2</ele>
        <time>2013-03-08T14:37:06Z</time>
      </trkpt>
      <trkpt lat="42.861069" lon="1.354690">
        <ele>1327.2</ele>
        <time>2013-03-08T14:37:30Z</time>
      </trkpt>
      <trkpt lat="42.861104" lon="1.354838">
        <ele>1324.8</ele>
        <time>2013-03-08T14:37:55Z</time>
      </trkpt>
      <trkpt lat="42.861164" lon="1.354975">
        <ele>1321.0</ele>
        <time>2013-03-08T14:39:04Z</time>
      </trkpt>
      <trkpt lat="42.861185" lon="1.355108">
        <ele>1319.1</ele>
        <time>2013-03-08T14:39:18Z</time>
      </trkpt>
      <trkpt lat="42.861198" lon="1.355198">
        <ele>1316.7</ele>
        <time>2013-03-08T14:41:11Z</time>
      </trkpt>
      <trkpt lat="42.861297" lon="1.355318">
        <ele>1313.8</ele>
        <time>2013-03-08T14:42:16Z</time>
      </trkpt>
      <trkpt lat="42.861392" lon="1.355476">
        <ele>1311.4</ele>
        <time>2013-03-08T14:42:39Z</time>
      </trkpt>
      <trkpt lat="42.861479" lon="1.355604">
        <ele>1308.5</ele>
        <time>2013-03-08T14:42:56Z</time>
      </trkpt>
      <trkpt lat="42.861547" lon="1.355748">
        <ele>1306.1</ele>
        <time>2013-03-08T14:43:12Z</time>
      </trkpt>
      <trkpt lat="42.861622" lon="1.355857">
        <ele>1304.2</ele>
        <time>2013-03-08T14:43:26Z</time>
      </trkpt>
      <trkpt lat="42.861668" lon="1.355973">
        <ele>1301.3</ele>
        <time>2013-03-08T14:43:45Z</time>
      </trkpt>
      <trkpt lat="42.861770" lon="1.356111">
        <ele>1297.4</ele>
        <time>2013-03-08T14:44:13Z</time>
      </trkpt>
      <trkpt lat="42.861899" lon="1.356258">
        <ele>1294.1</ele>
        <time>2013-03-08T14:44:37Z</time>
      </trkpt>
      <trkpt lat="42.861947" lon="1.356411">
        <ele>1289.3</ele>
        <time>2013-03-08T14:45:01Z</time>
      </trkpt>
      <trkpt lat="42.862008" lon="1.356569">
        <ele>1284.9</ele>
        <time>2013-03-08T14:45:38Z</time>
      </trkpt>
      <trkpt lat="42.862054" lon="1.356691">
        <ele>1281.6</ele>
        <time>2013-03-08T14:46:00Z</time>
      </trkpt>
      <trkpt lat="42.862107" lon="1.356833">
        <ele>1277.7</ele>
        <time>2013-03-08T14:46:16Z</time>
      </trkpt>
      <trkpt lat="42.862168" lon="1.356969">
        <ele>1273.4</ele>
        <time>2013-03-08T14:46:33Z</time>
      </trkpt>
      <trkpt lat="42.862245" lon="1.357098">
        <ele>1270.0</ele>
        <time>2013-03-08T14:46:50Z</time>
      </trkpt>
      <trkpt lat="42.862320" lon="1.357220">
        <ele>1266.2</ele>
        <time>2013-03-08T14:47:12Z</time>
      </trkpt>
      <trkpt lat="42.862381" lon="1.357349">
        <ele>1263.8</ele>
        <time>2013-03-08T14:47:26Z</time>
      </trkpt>
      <trkpt lat="42.862447" lon="1.357483">
        <ele>1261.4</ele>
        <time>2013-03-08T14:47:41Z</time>
      </trkpt>
      <trkpt lat="42.862517" lon="1.357630">
        <ele>1258.0</ele>
        <time>2013-03-08T14:47:57Z</time>
      </trkpt>
      <trkpt lat="42.862578" lon="1.357795">
        <ele>1255.6</ele>
        <time>2013-03-08T14:50:18Z</time>
      </trkpt>
      <trkpt lat="42.862642" lon="1.357866">
        <ele>1252.2</ele>
        <time>2013-03-08T14:50:32Z</time>
      </trkpt>
      <trkpt lat="42.862726" lon="1.357964">
        <ele>1250.8</ele>
        <time>2013-03-08T14:50:46Z</time>
      </trkpt>
      <trkpt lat="42.862800" lon="1.358082">
        <ele>1247.4</ele>
        <time>2013-03-08T14:51:08Z</time>
      </trkpt>
      <trkpt lat="42.862872" lon="1.358213">
        <ele>1245.0</ele>
        <time>2013-03-08T14:51:27Z</time>
      </trkpt>
      <trkpt lat="42.862934" lon="1.358340">
        <ele>1243.1</ele>
        <time>2013-03-08T14:51:43Z</time>
      </trkpt>
      <trkpt lat="42.863045" lon="1.358437">
        <ele>1241.2</ele>
        <time>2013-03-08T14:51:59Z</time>
      </trkpt>
      <trkpt lat="42.863158" lon="1.358547">
        <ele>1239.8</ele>
        <time>2013-03-08T14:52:18Z</time>
      </trkpt>
      <trkpt lat="42.863256" lon="1.358638">
        <ele>1238.3</ele>
        <time>2013-03-08T14:52:35Z</time>
      </trkpt>
      <trkpt lat="42.863405" lon="1.358693">
        <ele>1235.4</ele>
        <time>2013-03-08T14:52:51Z</time>
      </trkpt>
      <trkpt lat="42.863554" lon="1.358789">
        <ele>1233.5</ele>
        <time>2013-03-08T14:53:13Z</time>
      </trkpt>
      <trkpt lat="42.863658" lon="1.358834">
        <ele>1232.1</ele>
        <time>2013-03-08T14:53:29Z</time>
      </trkpt>
      <trkpt lat="42.863771" lon="1.358817">
        <ele>1231.1</ele>
        <time>2013-03-08T14:54:58Z</time>
      </trkpt>
      <trkpt lat="42.863871" lon="1.358859">
        <ele>1230.1</ele>
        <time>2013-03-08T14:55:11Z</time>
      </trkpt>
      <trkpt lat="42.863975" lon="1.358862">
        <ele>1228.7</ele>
        <time>2013-03-08T14:55:24Z</time>
      </trkpt>
      <trkpt lat="42.864072" lon="1.358876">
        <ele>1228.7</ele>
        <time>2013-03-08T14:55:39Z</time>
      </trkpt>
      <trkpt lat="42.864185" lon="1.358873">
        <ele>1226.8</ele>
        <time>2013-03-08T14:55:53Z</time>
      </trkpt>
      <trkpt lat="42.864310" lon="1.358932">
        <ele>1225.3</ele>
        <time>2013-03-08T14:56:12Z</time>
      </trkpt>
      <trkpt lat="42.864411" lon="1.358986">
        <ele>1224.9</ele>
        <time>2013-03-08T14:56:28Z</time>
      </trkpt>
      <trkpt lat="42.864494" lon="1.359058">
        <ele>1223.4</ele>
        <time>2013-03-08T14:56:43Z</time>
      </trkpt>
      <trkpt lat="42.864590" lon="1.359105">
        <ele>1222.0</ele>
        <time>2013-03-08T14:56:59Z</time>
      </trkpt>
      <trkpt lat="42.864691" lon="1.359124">
        <ele>1221.0</ele>
        <time>2013-03-08T14:57:13Z</time>
      </trkpt>
      <trkpt lat="42.864780" lon="1.359140">
        <ele>1220.1</ele>
        <time>2013-03-08T14:57:25Z</time>
      </trkpt>
      <trkpt lat="42.864912" lon="1.359136">
        <ele>1218.6</ele>
        <time>2013-03-08T14:57:37Z</time>
      </trkpt>
      <trkpt lat="42.865013" lon="1.359138">
        <ele>1217.2</ele>
        <time>2013-03-08T14:57:49Z</time>
      </trkpt>
      <trkpt lat="42.865121" lon="1.359142">
        <ele>1216.7</ele>
        <time>2013-03-08T14:58:04Z</time>
      </trkpt>
      <trkpt lat="42.865251" lon="1.359118">
        <ele>1215.7</ele>
        <time>2013-03-08T14:58:19Z</time>
      </trkpt>
      <trkpt lat="42.865375" lon="1.359113">
        <ele>1214.3</ele>
        <time>2013-03-08T14:58:34Z</time>
      </trkpt>
      <trkpt lat="42.865484" lon="1.359105">
        <ele>1212.8</ele>
        <time>2013-03-08T14:58:49Z</time>
      </trkpt>
      <trkpt lat="42.865595" lon="1.359087">
        <ele>1211.4</ele>
        <time>2013-03-08T14:59:02Z</time>
      </trkpt>
      <trkpt lat="42.865712" lon="1.359086">
        <ele>1210.9</ele>
        <time>2013-03-08T14:59:15Z</time>
      </trkpt>
      <trkpt lat="42.865804" lon="1.359055">
        <ele>1210.0</ele>
        <time>2013-03-08T14:59:27Z</time>
      </trkpt>
      <trkpt lat="42.865900" lon="1.359047">
        <ele>1209.5</ele>
        <time>2013-03-08T14:59:39Z</time>
      </trkpt>
      <trkpt lat="42.865995" lon="1.359067">
        <ele>1207.6</ele>
        <time>2013-03-08T14:59:50Z</time>
      </trkpt>
      <trkpt lat="42.866102" lon="1.359074">
        <ele>1206.1</ele>
        <time>2013-03-08T15:00:04Z</time>
      </trkpt>
      <trkpt lat="42.866207" lon="1.359106">
        <ele>1204.2</ele>
        <time>2013-03-08T15:00:16Z</time>
      </trkpt>
      <trkpt lat="42.866323" lon="1.359136">
        <ele>1203.2</ele>
        <time>2013-03-08T15:00:29Z</time>
      </trkpt>
      <trkpt lat="42.866453" lon="1.359146">
        <ele>1201.8</ele>
        <time>2013-03-08T15:00:43Z</time>
      </trkpt>
      <trkpt lat="42.866589" lon="1.359186">
        <ele>1200.8</ele>
        <time>2013-03-08T15:00:58Z</time>
      </trkpt>
      <trkpt lat="42.866696" lon="1.359198">
        <ele>1199.9</ele>
        <time>2013-03-08T15:01:11Z</time>
      </trkpt>
      <trkpt lat="42.866794" lon="1.359232">
        <ele>1198.9</ele>
        <time>2013-03-08T15:01:22Z</time>
      </trkpt>
      <trkpt lat="42.866900" lon="1.359295">
        <ele>1197.5</ele>
        <time>2013-03-08T15:01:35Z</time>
      </trkpt>
      <trkpt lat="42.867006" lon="1.359352">
        <ele>1196.0</ele>
        <time>2013-03-08T15:01:48Z</time>
        <name>Aire de pique-nique</name>
      </trkpt>
      <trkpt lat="42.867102" lon="1.359392">
        <ele>1196.0</ele>
        <time>2013-03-08T15:02:52Z</time>
      </trkpt>
      <trkpt lat="42.867132" lon="1.359447">
        <ele>1195.5</ele>
        <time>2013-03-08T15:03:44Z</time>
      </trkpt>
      <trkpt lat="42.867267" lon="1.359390">
        <ele>1188.3</ele>
        <time>2013-03-08T15:04:25Z</time>
      </trkpt>
      <trkpt lat="42.867306" lon="1.359266">
        <ele>1186.4</ele>
        <time>2013-03-08T15:04:40Z</time>
      </trkpt>
      <trkpt lat="42.867373" lon="1.359193">
        <ele>1182.6</ele>
        <time>2013-03-08T15:04:57Z</time>
      </trkpt>
      <trkpt lat="42.867408" lon="1.359140">
        <ele>1179.7</ele>
        <time>2013-03-08T15:06:16Z</time>
      </trkpt>
      <trkpt lat="42.867565" lon="1.358982">
        <ele>1176.8</ele>
        <time>2013-03-08T15:06:32Z</time>
      </trkpt>
      <trkpt lat="42.867661" lon="1.358935">
        <ele>1173.4</ele>
        <time>2013-03-08T15:06:47Z</time>
      </trkpt>
      <trkpt lat="42.867755" lon="1.358803">
        <ele>1169.6</ele>
        <time>2013-03-08T15:07:08Z</time>
      </trkpt>
      <trkpt lat="42.867860" lon="1.358690">
        <ele>1165.7</ele>
        <time>2013-03-08T15:07:45Z</time>
      </trkpt>
      <trkpt lat="42.867955" lon="1.358658">
        <ele>1162.4</ele>
        <time>2013-03-08T15:07:55Z</time>
      </trkpt>
      <trkpt lat="42.868053" lon="1.358553">
        <ele>1157.6</ele>
        <time>2013-03-08T15:08:07Z</time>
      </trkpt>
      <trkpt lat="42.868149" lon="1.358478">
        <ele>1151.3</ele>
        <time>2013-03-08T15:08:22Z</time>
      </trkpt>
      <trkpt lat="42.868234" lon="1.358401">
        <ele>1147.0</ele>
        <time>2013-03-08T15:08:33Z</time>
      </trkpt>
      <trkpt lat="42.868312" lon="1.358298">
        <ele>1140.7</ele>
        <time>2013-03-08T15:08:48Z</time>
      </trkpt>
      <trkpt lat="42.868393" lon="1.358198">
        <ele>1137.4</ele>
        <time>2013-03-08T15:08:58Z</time>
      </trkpt>
      <trkpt lat="42.868464" lon="1.358060">
        <ele>1135.4</ele>
        <time>2013-03-08T15:10:03Z</time>
      </trkpt>
      <trkpt lat="42.868569" lon="1.358024">
        <ele>1133.1</ele>
        <time>2013-03-08T15:10:16Z</time>
      </trkpt>
      <trkpt lat="42.868720" lon="1.357804">
        <ele>1130.2</ele>
        <time>2013-03-08T15:11:11Z</time>
      </trkpt>
      <trkpt lat="42.868807" lon="1.357755">
        <ele>1129.7</ele>
        <time>2013-03-08T15:11:23Z</time>
      </trkpt>
      <trkpt lat="42.868896" lon="1.357711">
        <ele>1129.2</ele>
        <time>2013-03-08T15:11:36Z</time>
      </trkpt>
      <trkpt lat="42.869007" lon="1.357592">
        <ele>1127.3</ele>
        <time>2013-03-08T15:11:54Z</time>
      </trkpt>
      <trkpt lat="42.869114" lon="1.357508">
        <ele>1124.4</ele>
        <time>2013-03-08T15:12:12Z</time>
      </trkpt>
      <trkpt lat="42.869173" lon="1.357401">
        <ele>1121.5</ele>
        <time>2013-03-08T15:12:54Z</time>
      </trkpt>
      <trkpt lat="42.869261" lon="1.357346">
        <ele>1117.7</ele>
        <time>2013-03-08T15:13:13Z</time>
      </trkpt>
      <trkpt lat="42.869355" lon="1.357302">
        <ele>1114.8</ele>
        <time>2013-03-08T15:13:31Z</time>
      </trkpt>
      <trkpt lat="42.869460" lon="1.357215">
        <ele>1112.9</ele>
        <time>2013-03-08T15:13:52Z</time>
      </trkpt>
      <trkpt lat="42.869588" lon="1.357095">
        <ele>1110.5</ele>
        <time>2013-03-08T15:14:34Z</time>
      </trkpt>
      <trkpt lat="42.869672" lon="1.356995">
        <ele>1109.0</ele>
        <time>2013-03-08T15:14:48Z</time>
      </trkpt>
      <trkpt lat="42.869771" lon="1.356919">
        <ele>1107.6</ele>
        <time>2013-03-08T15:15:01Z</time>
      </trkpt>
      <trkpt lat="42.869868" lon="1.356883">
        <ele>1107.6</ele>
        <time>2013-03-08T15:15:15Z</time>
      </trkpt>
      <trkpt lat="42.869977" lon="1.356844">
        <ele>1107.1</ele>
        <time>2013-03-08T15:15:27Z</time>
      </trkpt>
      <trkpt lat="42.870110" lon="1.356744">
        <ele>1105.7</ele>
        <time>2013-03-08T15:15:44Z</time>
      </trkpt>
      <trkpt lat="42.870229" lon="1.356661">
        <ele>1104.2</ele>
        <time>2013-03-08T15:16:01Z</time>
      </trkpt>
      <trkpt lat="42.870360" lon="1.356601">
        <ele>1105.2</ele>
        <time>2013-03-08T15:16:14Z</time>
      </trkpt>
      <trkpt lat="42.870445" lon="1.356471">
        <ele>1104.2</ele>
        <time>2013-03-08T15:16:29Z</time>
      </trkpt>
      <trkpt lat="42.870527" lon="1.356379">
        <ele>1103.7</ele>
        <time>2013-03-08T15:16:43Z</time>
      </trkpt>
      <trkpt lat="42.870548" lon="1.356225">
        <ele>1105.2</ele>
        <time>2013-03-08T15:17:02Z</time>
      </trkpt>
      <trkpt lat="42.870632" lon="1.356108">
        <ele>1105.2</ele>
        <time>2013-03-08T15:17:17Z</time>
      </trkpt>
      <trkpt lat="42.870708" lon="1.356005">
        <ele>1105.2</ele>
        <time>2013-03-08T15:17:30Z</time>
      </trkpt>
      <trkpt lat="42.870821" lon="1.355943">
        <ele>1104.7</ele>
        <time>2013-03-08T15:17:50Z</time>
      </trkpt>
      <trkpt lat="42.870895" lon="1.355862">
        <ele>1103.7</ele>
        <time>2013-03-08T15:18:39Z</time>
      </trkpt>
      <trkpt lat="42.870969" lon="1.355743">
        <ele>1102.3</ele>
        <time>2013-03-08T15:18:53Z</time>
      </trkpt>
      <trkpt lat="42.871059" lon="1.355659">
        <ele>1101.3</ele>
        <time>2013-03-08T15:19:10Z</time>
      </trkpt>
      <trkpt lat="42.871165" lon="1.355610">
        <ele>1099.9</ele>
        <time>2013-03-08T15:19:27Z</time>
      </trkpt>
      <trkpt lat="42.871283" lon="1.355557">
        <ele>1098.4</ele>
        <time>2013-03-08T15:19:42Z</time>
      </trkpt>
      <trkpt lat="42.871398" lon="1.355526">
        <ele>1097.5</ele>
        <time>2013-03-08T15:19:58Z</time>
      </trkpt>
      <trkpt lat="42.871526" lon="1.355477">
        <ele>1095.6</ele>
        <time>2013-03-08T15:20:14Z</time>
      </trkpt>
      <trkpt lat="42.871654" lon="1.355350">
        <ele>1095.6</ele>
        <time>2013-03-08T15:20:33Z</time>
      </trkpt>
      <trkpt lat="42.871783" lon="1.355349">
        <ele>1095.6</ele>
        <time>2013-03-08T15:21:00Z</time>
      </trkpt>
      <trkpt lat="42.871844" lon="1.355303">
        <ele>1095.6</ele>
        <time>2013-03-08T15:21:22Z</time>
      </trkpt>
      <trkpt lat="42.871895" lon="1.355279">
        <ele>1095.6</ele>
        <time>2013-03-08T15:22:00Z</time>
      </trkpt>
      <trkpt lat="42.871935" lon="1.355100">
        <ele>1096.5</ele>
        <time>2013-03-08T15:22:24Z</time>
      </trkpt>
      <trkpt lat="42.871959" lon="1.355007">
        <ele>1096.5</ele>
        <time>2013-03-08T15:23:11Z</time>
      </trkpt>
      <trkpt lat="42.872082" lon="1.354980">
        <ele>1096.0</ele>
        <time>2013-03-08T15:23:26Z</time>
      </trkpt>
      <trkpt lat="42.872189" lon="1.354914">
        <ele>1096.0</ele>
        <time>2013-03-08T15:23:44Z</time>
      </trkpt>
      <trkpt lat="42.872272" lon="1.354794">
        <ele>1096.5</ele>
        <time>2013-03-08T15:24:00Z</time>
      </trkpt>
      <trkpt lat="42.872359" lon="1.354718">
        <ele>1096.0</ele>
        <time>2013-03-08T15:24:16Z</time>
      </trkpt>
      <trkpt lat="42.872447" lon="1.354650">
        <ele>1096.0</ele>
        <time>2013-03-08T15:24:30Z</time>
      </trkpt>
      <trkpt lat="42.872546" lon="1.354604">
        <ele>1095.6</ele>
        <time>2013-03-08T15:24:45Z</time>
      </trkpt>
      <trkpt lat="42.872666" lon="1.354584">
        <ele>1095.1</ele>
        <time>2013-03-08T15:24:59Z</time>
      </trkpt>
      <trkpt lat="42.872767" lon="1.354511">
        <ele>1093.2</ele>
        <time>2013-03-08T15:25:17Z</time>
      </trkpt>
      <trkpt lat="42.872881" lon="1.354486">
        <ele>1090.8</ele>
        <time>2013-03-08T15:25:32Z</time>
      </trkpt>
      <trkpt lat="42.873003" lon="1.354483">
        <ele>1087.4</ele>
        <time>2013-03-08T15:25:48Z</time>
      </trkpt>
      <trkpt lat="42.873108" lon="1.354404">
        <ele>1086.4</ele>
        <time>2013-03-08T15:26:03Z</time>
      </trkpt>
      <trkpt lat="42.873230" lon="1.354365">
        <ele>1084.5</ele>
        <time>2013-03-08T15:26:19Z</time>
      </trkpt>
      <trkpt lat="42.873323" lon="1.354281">
        <ele>1084.0</ele>
        <time>2013-03-08T15:26:35Z</time>
      </trkpt>
      <trkpt lat="42.873429" lon="1.354184">
        <ele>1084.5</ele>
        <time>2013-03-08T15:26:55Z</time>
      </trkpt>
      <trkpt lat="42.873536" lon="1.354102">
        <ele>1083.5</ele>
        <time>2013-03-08T15:27:10Z</time>
      </trkpt>
      <trkpt lat="42.873620" lon="1.353996">
        <ele>1082.1</ele>
        <time>2013-03-08T15:27:25Z</time>
      </trkpt>
      <trkpt lat="42.873722" lon="1.353925">
        <ele>1080.2</ele>
        <time>2013-03-08T15:27:43Z</time>
      </trkpt>
      <trkpt lat="42.873839" lon="1.353844">
        <ele>1076.3</ele>
        <time>2013-03-08T15:28:03Z</time>
      </trkpt>
      <trkpt lat="42.873942" lon="1.353793">
        <ele>1073.4</ele>
        <time>2013-03-08T15:28:21Z</time>
      </trkpt>
      <trkpt lat="42.874068" lon="1.353771">
        <ele>1070.1</ele>
        <time>2013-03-08T15:28:37Z</time>
      </trkpt>
      <trkpt lat="42.874182" lon="1.353759">
        <ele>1066.2</ele>
        <time>2013-03-08T15:28:55Z</time>
      </trkpt>
      <trkpt lat="42.874310" lon="1.353764">
        <ele>1060.9</ele>
        <time>2013-03-08T15:29:14Z</time>
      </trkpt>
      <trkpt lat="42.874384" lon="1.353627">
        <ele>1058.6</ele>
        <time>2013-03-08T15:29:32Z</time>
      </trkpt>
      <trkpt lat="42.874518" lon="1.353563">
        <ele>1054.2</ele>
        <time>2013-03-08T15:30:19Z</time>
      </trkpt>
      <trkpt lat="42.874624" lon="1.353520">
        <ele>1048.4</ele>
        <time>2013-03-08T15:30:30Z</time>
      </trkpt>
      <trkpt lat="42.874735" lon="1.353432">
        <ele>1044.1</ele>
        <time>2013-03-08T15:30:44Z</time>
      </trkpt>
      <trkpt lat="42.874848" lon="1.353440">
        <ele>1036.9</ele>
        <time>2013-03-08T15:31:01Z</time>
      </trkpt>
      <trkpt lat="42.874970" lon="1.353389">
        <ele>1031.6</ele>
        <time>2013-03-08T15:31:18Z</time>
      </trkpt>
      <trkpt lat="42.875094" lon="1.353303">
        <ele>1026.3</ele>
        <time>2013-03-08T15:31:36Z</time>
      </trkpt>
      <trkpt lat="42.875178" lon="1.353127">
        <ele>1019.1</ele>
        <time>2013-03-08T15:32:05Z</time>
      </trkpt>
      <trkpt lat="42.875387" lon="1.353065">
        <ele>1010.5</ele>
        <time>2013-03-08T15:33:05Z</time>
      </trkpt>
      <trkpt lat="42.875498" lon="1.353131">
        <ele>1008.1</ele>
        <time>2013-03-08T15:33:22Z</time>
      </trkpt>
      <trkpt lat="42.875621" lon="1.353179">
        <ele>1003.8</ele>
        <time>2013-03-08T15:33:45Z</time>
      </trkpt>
      <trkpt lat="42.875750" lon="1.353219">
        <ele>998.0</ele>
        <time>2013-03-08T15:34:21Z</time>
      </trkpt>
      <trkpt lat="42.875888" lon="1.353231">
        <ele>991.7</ele>
        <time>2013-03-08T15:34:49Z</time>
      </trkpt>
      <trkpt lat="42.876020" lon="1.353255">
        <ele>987.4</ele>
        <time>2013-03-08T15:35:12Z</time>
      </trkpt>
      <trkpt lat="42.876247" lon="1.353205">
        <ele>963.7</ele>
        <time>2013-03-08T15:37:40Z</time>
      </trkpt>
      <trkpt lat="42.876381" lon="1.353218">
        <ele>959.7</ele>
        <time>2013-03-08T15:37:59Z</time>
      </trkpt>
      <trkpt lat="42.876537" lon="1.353272">
        <ele>979.2</ele>
        <time>2013-03-08T15:38:26Z</time>
      </trkpt>
      <trkpt lat="42.876670" lon="1.353222">
        <ele>980.7</ele>
        <time>2013-03-08T15:38:43Z</time>
      </trkpt>
      <trkpt lat="42.876810" lon="1.353240">
        <ele>981.6</ele>
        <time>2013-03-08T15:39:00Z</time>
      </trkpt>
      <trkpt lat="42.876836" lon="1.353242">
        <ele>944.9</ele>
        <time>2013-03-08T15:39:42Z</time>
        <name>Cab. de Claustre</name>
      </trkpt>
      <trkpt lat="42.876874" lon="1.353220">
        <ele>943.5</ele>
        <time>2013-03-08T15:47:22Z</time>
      </trkpt>
      <trkpt lat="42.876911" lon="1.353167">
        <ele>982.1</ele>
        <time>2013-03-08T15:47:46Z</time>
      </trkpt>
      <trkpt lat="42.877006" lon="1.353089">
        <ele>982.1</ele>
        <time>2013-03-08T15:47:58Z</time>
      </trkpt>
      <trkpt lat="42.877063" lon="1.352989">
        <ele>981.6</ele>
        <time>2013-03-08T15:48:09Z</time>
      </trkpt>
      <trkpt lat="42.877098" lon="1.352859">
        <ele>980.7</ele>
        <time>2013-03-08T15:48:19Z</time>
      </trkpt>
      <trkpt lat="42.877177" lon="1.352763">
        <ele>979.2</ele>
        <time>2013-03-08T15:48:28Z</time>
      </trkpt>
      <trkpt lat="42.877210" lon="1.352630">
        <ele>975.9</ele>
        <time>2013-03-08T15:48:39Z</time>
      </trkpt>
      <trkpt lat="42.877222" lon="1.352525">
        <ele>972.5</ele>
        <time>2013-03-08T15:48:51Z</time>
      </trkpt>
      <trkpt lat="42.877256" lon="1.352402">
        <ele>968.7</ele>
        <time>2013-03-08T15:49:04Z</time>
      </trkpt>
      <trkpt lat="42.877240" lon="1.352304">
        <ele>963.9</ele>
        <time>2013-03-08T15:49:18Z</time>
      </trkpt>
      <trkpt lat="42.877214" lon="1.352175">
        <ele>958.1</ele>
        <time>2013-03-08T15:49:36Z</time>
      </trkpt>
      <trkpt lat="42.877295" lon="1.352012">
        <ele>945.6</ele>
        <time>2013-03-08T15:50:36Z</time>
      </trkpt>
      <trkpt lat="42.877438" lon="1.352032">
        <ele>942.7</ele>
        <time>2013-03-08T15:51:00Z</time>
      </trkpt>
      <trkpt lat="42.877556" lon="1.352118">
        <ele>938.4</ele>
        <time>2013-03-08T15:51:18Z</time>
      </trkpt>
      <trkpt lat="42.877691" lon="1.352148">
        <ele>933.6</ele>
        <time>2013-03-08T15:51:39Z</time>
      </trkpt>
      <trkpt lat="42.877866" lon="1.352130">
        <ele>929.2</ele>
        <time>2013-03-08T15:51:58Z</time>
      </trkpt>
      <trkpt lat="42.877976" lon="1.352197">
        <ele>928.3</ele>
        <time>2013-03-08T15:53:30Z</time>
      </trkpt>
      <trkpt lat="42.878119" lon="1.352239">
        <ele>924.9</ele>
        <time>2013-03-08T15:53:44Z</time>
      </trkpt>
      <trkpt lat="42.878297" lon="1.352224">
        <ele>922.0</ele>
        <time>2013-03-08T15:53:59Z</time>
      </trkpt>
      <trkpt lat="42.878448" lon="1.352290">
        <ele>919.2</ele>
        <time>2013-03-08T15:54:19Z</time>
      </trkpt>
      <trkpt lat="42.878605" lon="1.352370">
        <ele>914.3</ele>
        <time>2013-03-08T15:54:40Z</time>
      </trkpt>
      <trkpt lat="42.878798" lon="1.352458">
        <ele>909.5</ele>
        <time>2013-03-08T15:55:14Z</time>
      </trkpt>
      <trkpt lat="42.878908" lon="1.352500">
        <ele>904.7</ele>
        <time>2013-03-08T15:55:27Z</time>
      </trkpt>
      <trkpt lat="42.879041" lon="1.352469">
        <ele>899.0</ele>
        <time>2013-03-08T15:55:45Z</time>
      </trkpt>
      <trkpt lat="42.879136" lon="1.352406">
        <ele>895.1</ele>
        <time>2013-03-08T15:55:58Z</time>
      </trkpt>
      <trkpt lat="42.879286" lon="1.352432">
        <ele>891.3</ele>
        <time>2013-03-08T15:56:14Z</time>
      </trkpt>
      <trkpt lat="42.879426" lon="1.352364">
        <ele>885.0</ele>
        <time>2013-03-08T15:56:34Z</time>
      </trkpt>
      <trkpt lat="42.879524" lon="1.352269">
        <ele>879.7</ele>
        <time>2013-03-08T15:56:49Z</time>
      </trkpt>
      <trkpt lat="42.879563" lon="1.352072">
        <ele>874.9</ele>
        <time>2013-03-08T15:57:07Z</time>
      </trkpt>
      <trkpt lat="42.879669" lon="1.351874">
        <ele>871.1</ele>
        <time>2013-03-08T15:57:36Z</time>
      </trkpt>
      <trkpt lat="42.879724" lon="1.351724">
        <ele>866.8</ele>
        <time>2013-03-08T15:58:30Z</time>
      </trkpt>
      <trkpt lat="42.879716" lon="1.351531">
        <ele>861.5</ele>
        <time>2013-03-08T16:00:09Z</time>
      </trkpt>
      <trkpt lat="42.879518" lon="1.351439">
        <ele>863.4</ele>
        <time>2013-03-08T16:01:34Z</time>
      </trkpt>
      <trkpt lat="42.879396" lon="1.351311">
        <ele>862.9</ele>
        <time>2013-03-08T16:01:59Z</time>
      </trkpt>
      <trkpt lat="42.879253" lon="1.351196">
        <ele>861.0</ele>
        <time>2013-03-08T16:02:15Z</time>
      </trkpt>
      <trkpt lat="42.879161" lon="1.351033">
        <ele>859.1</ele>
        <time>2013-03-08T16:02:43Z</time>
      </trkpt>
      <trkpt lat="42.879042" lon="1.350961">
        <ele>857.6</ele>
        <time>2013-03-08T16:03:08Z</time>
      </trkpt>
      <trkpt lat="42.878876" lon="1.350939">
        <ele>857.6</ele>
        <time>2013-03-08T16:03:27Z</time>
      </trkpt>
      <trkpt lat="42.878730" lon="1.350830">
        <ele>856.7</ele>
        <time>2013-03-08T16:03:45Z</time>
      </trkpt>
      <trkpt lat="42.878609" lon="1.350782">
        <ele>857.2</ele>
        <time>2013-03-08T16:04:00Z</time>
      </trkpt>
      <trkpt lat="42.878456" lon="1.350710">
        <ele>857.2</ele>
        <time>2013-03-08T16:04:18Z</time>
      </trkpt>
      <trkpt lat="42.878296" lon="1.350603">
        <ele>856.7</ele>
        <time>2013-03-08T16:04:39Z</time>
      </trkpt>
      <trkpt lat="42.878116" lon="1.350462">
        <ele>858.1</ele>
        <time>2013-03-08T16:05:01Z</time>
      </trkpt>
      <trkpt lat="42.877990" lon="1.350277">
        <ele>858.1</ele>
        <time>2013-03-08T16:05:26Z</time>
      </trkpt>
      <trkpt lat="42.877828" lon="1.350126">
        <ele>857.2</ele>
        <time>2013-03-08T16:05:53Z</time>
      </trkpt>
      <trkpt lat="42.877692" lon="1.350169">
        <ele>857.6</ele>
        <time>2013-03-08T16:06:11Z</time>
      </trkpt>
      <trkpt lat="42.877532" lon="1.350178">
        <ele>856.7</ele>
        <time>2013-03-08T16:06:36Z</time>
      </trkpt>
      <trkpt lat="42.877361" lon="1.350183">
        <ele>854.8</ele>
        <time>2013-03-08T16:06:55Z</time>
      </trkpt>
      <trkpt lat="42.877193" lon="1.350166">
        <ele>852.8</ele>
        <time>2013-03-08T16:07:31Z</time>
      </trkpt>
      <trkpt lat="42.876959" lon="1.350189">
        <ele>849.9</ele>
        <time>2013-03-08T16:07:57Z</time>
      </trkpt>
      <trkpt lat="42.876750" lon="1.350120">
        <ele>846.6</ele>
        <time>2013-03-08T16:08:32Z</time>
      </trkpt>
      <trkpt lat="42.876394" lon="1.349988">
        <ele>854.7</ele>
        <time>2013-03-08T16:10:08Z</time>
      </trkpt>
      <trkpt lat="42.876190" lon="1.349791">
        <ele>846.4</ele>
        <time>2013-03-08T16:10:35Z</time>
      </trkpt>
      <trkpt lat="42.875953" lon="1.349513">
        <ele>833.8</ele>
        <time>2013-03-08T16:11:07Z</time>
      </trkpt>
      <trkpt lat="42.875663" lon="1.349149">
        <ele>820.9</ele>
        <time>2013-03-08T16:11:27Z</time>
      </trkpt>
      <trkpt lat="42.875473" lon="1.348893">
        <ele>814.2</ele>
        <time>2013-03-08T16:12:00Z</time>
      </trkpt>
      <trkpt lat="42.875265" lon="1.348574">
        <ele>806.3</ele>
        <time>2013-03-08T16:20:13Z</time>
      </trkpt>
      <trkpt lat="42.875045" lon="1.348247">
        <ele>801.8</ele>
        <time>2013-03-08T16:20:35Z</time>
      </trkpt>
    </trkseg>
  </trk>
</gpx>

